Observation data for Lake McClellan 2NW on 04/26/2019      Previous  Date  Next       Current Mesonet Observations  Soil Data  Daily Summary Page  Observations in Plain Language
KMC5 260500Z 02004KT 14/04 A302 RMK A01 T01370039  RH  051%=      5-min Rain = 0
KMC5 260501Z 01004KT 14/04 A302 RMK A01 T01370039  RH  051%=      5-min Rain = 0
KMC5 260502Z 01004KT 14/04 A302 RMK A01 T01380039  RH  051%=      5-min Rain = 0
KMC5 260503Z 02004KT 14/04 A302 RMK A01 T01370040  RH  052%=      5-min Rain = 0
KMC5 260504Z 02004KT 14/04 A302 RMK A01 T01370039  RH  052%=      5-min Rain = 0
KMC5 260505Z 02004KT 14/04 A302 RMK A01 T01370039  RH  051%=      5-min Rain = 0
KMC5 260506Z 02004KT 14/04 A302 RMK A01 T01370039  RH  051%=      5-min Rain = 0
KMC5 260507Z 02004KT 14/04 A302 RMK A01 T01370038  RH  051%=      5-min Rain = 0
KMC5 260508Z 02003KT 14/04 A302 RMK A01 T01370037  RH  051%=      5-min Rain = 0
KMC5 260509Z 02003KT 14/04 A302 RMK A01 T01380037  RH  051%=      5-min Rain = 0
KMC5 260510Z 02003KT 14/04 A302 RMK A01 T01380037  RH  050%=      5-min Rain = 0
KMC5 260511Z 02003KT 14/04 A302 RMK A01 T01390037  RH  050%=      5-min Rain = 0
KMC5 260512Z 03002KT 14/04 A302 RMK A01 T01390036  RH  050%=      5-min Rain = 0
KMC5 260513Z 03002KT 14/04 A302 RMK A01 T01400037  RH  050%=      5-min Rain = 0
KMC5 260514Z 03002KT 14/04 A302 RMK A01 T01400036  RH  050%=      5-min Rain = 0
KMC5 260515Z 03002KT 14/04 A302 RMK A01 T01400036  RH  050%=      5-min Rain = 0
KMC5 260516Z 04002KT 14/04 A302 RMK A01 T01400036  RH  050%=      5-min Rain = 0
KMC5 260517Z 04002KT 14/04 A302 RMK A01 T01400036  RH  050%=      5-min Rain = 0
KMC5 260518Z 04002KT 14/04 A302 RMK A01 T01400036  RH  050%=      5-min Rain = 0
KMC5 260519Z 04002KT 14/04 A302 RMK A01 T01400036  RH  050%=      5-min Rain = 0
KMC5 260520Z 04002KT 14/04 A302 RMK A01 T01390035  RH  049%=      5-min Rain = 0
KMC5 260521Z 04001KT 14/04 A302 RMK A01 T01390036  RH  049%=      5-min Rain = 0
KMC5 260522Z 04001KT 14/04 A302 RMK A01 T01390036  RH  050%=      5-min Rain = 0
KMC5 260523Z 04001KT 14/04 A3021 RMK A01 T01390036  RH  050%=      5-min Rain = 0
KMC5 260524Z 04000KT 14/04 A3021 RMK A01 T01380037  RH  051%=      5-min Rain = 0
KMC5 260525Z 00000KT 14/04 A3021 RMK A01 T01360040  RH  052%=      5-min Rain = 0
KMC5 260526Z 00000KT 13/04 A3021 RMK A01 T01340040  RH  053%=      5-min Rain = 0
KMC5 260527Z 00000KT 13/04 A3021 RMK A01 T01320040  RH  054%=      5-min Rain = 0
KMC5 260528Z 00000KT 13/04 A3021 RMK A01 T01300041  RH  054%=      5-min Rain = 0
KMC5 260529Z 00000KT 13/04 A3021 RMK A01 T01290042  RH  055%=      5-min Rain = 0
KMC5 260530Z 00000KT 13/04 A3021 RMK A01 T01280043  RH  056%=      5-min Rain = 0
KMC5 260531Z 00000KT 13/04 A3021 RMK A01 T01270042  RH  056%=      5-min Rain = 0
KMC5 260532Z 00000KT 13/04 A3021 RMK A01 T01280042  RH  056%=      5-min Rain = 0
KMC5 260533Z 34000KT 13/04 A3021 RMK A01 T01280042  RH  056%=      5-min Rain = 0
KMC5 260534Z 35001KT 13/04 A3021 RMK A01 T01280041  RH  056%=      5-min Rain = 0
KMC5 260535Z 35002KT 13/04 A3021 RMK A01 T01280040  RH  055%=      5-min Rain = 0
KMC5 260536Z 36002KT 13/04 A3021 RMK A01 T01290040  RH  055%=      5-min Rain = 0
KMC5 260537Z 36002KT 13/04 A3021 RMK A01 T01300039  RH  054%=      5-min Rain = 0
KMC5 260538Z 00002KT 13/04 A3021 RMK A01 T01310038  RH  053%=      5-min Rain = 0
KMC5 260539Z 00002KT 13/04 A3021 RMK A01 T01320036  RH  052%=      5-min Rain = 0
KMC5 260540Z 01002KT 13/04 A3021 RMK A01 T01330036  RH  052%=      5-min Rain = 0
KMC5 260541Z 01002KT 13/04 A3021 RMK A01 T01340036  RH  051%=      5-min Rain = 0
KMC5 260542Z 01002KT 14/04 A3021 RMK A01 T01350036  RH  051%=      5-min Rain = 0
KMC5 260543Z 01002KT 14/04 A3021 RMK A01 T01350035  RH  051%=      5-min Rain = 0
KMC5 260544Z 01002KT 14/04 A3021 RMK A01 T01360035  RH  050%=      5-min Rain = 0
KMC5 260545Z 00002KT 14/04 A3021 RMK A01 T01370035  RH  050%=      5-min Rain = 0
KMC5 260546Z 36002KT 14/04 A3021 RMK A01 T01370035  RH  050%=      5-min Rain = 0
KMC5 260547Z 35002KT 14/04 A3021 RMK A01 T01380035  RH  050%=      5-min Rain = 0
KMC5 260548Z 35002KT 14/04 A3021 RMK A01 T01380035  RH  050%=      5-min Rain = 0
KMC5 260549Z 35001KT 14/03 A3021 RMK A01 T01380034  RH  050%=      5-min Rain = 0
KMC5 260550Z 34001KT 14/04 A3021 RMK A01 T01390035  RH  050%=      5-min Rain = 0
KMC5 260551Z 35001KT 14/04 A3021 RMK A01 T01380036  RH  050%=      5-min Rain = 0
KMC5 260552Z 00001KT 14/04 A3021 RMK A01 T01380036  RH  050%=      5-min Rain = 0
KMC5 260553Z 01001KT 14/04 A3021 RMK A01 T01370035  RH  050%=      5-min Rain = 0
KMC5 260554Z 03001KT 14/04 A3021 RMK A01 T01370035  RH  050%=      5-min Rain = 0
KMC5 260555Z 03001KT 14/03 A3021 RMK A01 T01370034  RH  050%=      5-min Rain = 0
KMC5 260556Z 05002KT 14/03 A3021 RMK A01 T01370034  RH  050%=      5-min Rain = 0
KMC5 260557Z 06002KT 14/04 A3021 RMK A01 T01370035  RH  050%=      5-min Rain = 0
KMC5 260558Z 06002KT 14/04 A3021 RMK A01 T01370035  RH  050%=      5-min Rain = 0
KMC5 260559Z 06001KT 14/03 A3021 RMK A01 T01370034  RH  050%=      5-min Rain = 0
KMC5 260600Z 06001KT 14/03 A3021 RMK A01 T01360033  RH  050%=      5-min Rain = 0
KMC5 260601Z 05002KT 14/03 A3021 RMK A01 T01350033  RH  050%=      5-min Rain = 0
KMC5 260602Z 05002KT 14/03 A3021 RMK A01 T01350033  RH  050%=      5-min Rain = 0
KMC5 260603Z 04002KT 14/03 A3021 RMK A01 T01360032  RH  050%=      5-min Rain = 0
KMC5 260604Z 03002KT 14/03 A3021 RMK A01 T01370033  RH  049%=      5-min Rain = 0
KMC5 260605Z 03002KT 14/03 A3021 RMK A01 T01380033  RH  049%=      5-min Rain = 0
KMC5 260606Z 03002KT 14/03 A3021 RMK A01 T01400033  RH  048%=      5-min Rain = 0
KMC5 260607Z 03003KT 14/03 A3021 RMK A01 T01410033  RH  048%=      5-min Rain = 0
KMC5 260608Z 03002KT 14/03 A3021 RMK A01 T01410033  RH  048%=      5-min Rain = 0
KMC5 260609Z 03002KT 14/03 A3021 RMK A01 T01420033  RH  048%=      5-min Rain = 0
KMC5 260610Z 03002KT 14/03 A3021 RMK A01 T01420033  RH  048%=      5-min Rain = 0
KMC5 260611Z 03002KT 14/03 A3021 RMK A01 T01410034  RH  048%=      5-min Rain = 0
KMC5 260612Z 03003KT 14/03 A3021 RMK A01 T01410034  RH  048%=      5-min Rain = 0
KMC5 260613Z 04003KT 14/03 A3021 RMK A01 T01410034  RH  049%=      5-min Rain = 0
KMC5 260614Z 04003KT 14/03 A3021 RMK A01 T01400034  RH  049%=      5-min Rain = 0
KMC5 260615Z 04003KT 14/03 A3021 RMK A01 T01400034  RH  049%=      5-min Rain = 0
KMC5 260616Z 04002KT 14/03 A3021 RMK A01 T01400034  RH  049%=      5-min Rain = 0
KMC5 260617Z 04003KT 14/03 A3021 RMK A01 T01400034  RH  049%=      5-min Rain = 0
KMC5 260618Z 04003KT 14/03 A3022 RMK A01 T01410034  RH  048%=      5-min Rain = 0
KMC5 260619Z 04003KT 14/03 A3022 RMK A01 T01410034  RH  048%=      5-min Rain = 0
KMC5 260620Z 04002KT 14/03 A3022 RMK A01 T01410034  RH  048%=      5-min Rain = 0
KMC5 260621Z 04002KT 14/03 A3022 RMK A01 T01410034  RH  048%=      5-min Rain = 0
KMC5 260622Z 04001KT 14/03 A3022 RMK A01 T01410034  RH  048%=      5-min Rain = 0
KMC5 260623Z 04001KT 14/03 A3022 RMK A01 T01410034  RH  048%=      5-min Rain = 0
KMC5 260624Z 04001KT 14/03 A3022 RMK A01 T01410034  RH  049%=      5-min Rain = 0
KMC5 260625Z 04000KT 14/03 A3022 RMK A01 T01410034  RH  049%=      5-min Rain = 0
KMC5 260626Z 04000KT 14/03 A3022 RMK A01 T01410034  RH  049%=      5-min Rain = 0
KMC5 260627Z 00000KT 14/03 A3022 RMK A01 T01410034  RH  048%=      5-min Rain = 0
KMC5 260628Z 00000KT 14/03 A3022 RMK A01 T01420034  RH  048%=      5-min Rain = 0
KMC5 260629Z 00000KT 14/03 A3022 RMK A01 T01430034  RH  048%=      5-min Rain = 0
KMC5 260630Z 00000KT 14/03 A3022 RMK A01 T01440034  RH  048%=      5-min Rain = 0
KMC5 260631Z 00000KT 15/03 A3022 RMK A01 T01450034  RH  047%=      5-min Rain = 0
KMC5 260632Z 00000KT 15/03 A3023 RMK A01 T01450034  RH  047%=      5-min Rain = 0
KMC5 260633Z 30000KT 14/04 A3023 RMK A01 T01440036  RH  048%=      5-min Rain = 0
KMC5 260634Z 29001KT 14/04 A3023 RMK A01 T01370038  RH  051%=      5-min Rain = 0
KMC5 260635Z 28001KT 13/04 A3023 RMK A01 T01290038  RH  054%=      5-min Rain = 0
KMC5 260636Z 28001KT 12/04 A3023 RMK A01 T01220039  RH  057%=      5-min Rain = 0
KMC5 260637Z 28001KT 12/04 A3023 RMK A01 T01170040  RH  059%=      5-min Rain = 0
KMC5 260638Z 29001KT 12/04 A3023 RMK A01 T01150039  RH  059%=      5-min Rain = 0
KMC5 260639Z 30001KT 12/04 A3023 RMK A01 T01160039  RH  059%=      5-min Rain = 0
KMC5 260640Z 30001KT 12/04 A3023 RMK A01 T01170039  RH  059%=      5-min Rain = 0
KMC5 260641Z 29001KT 12/04 A3023 RMK A01 T01190039  RH  058%=      5-min Rain = 0
KMC5 260642Z 28001KT 12/04 A3023 RMK A01 T01210039  RH  057%=      5-min Rain = 0
KMC5 260643Z 00000KT 12/04 A3023 RMK A01 T01220037  RH  056%=      5-min Rain = 0
KMC5 260644Z 00000KT 13/04 A3023 RMK A01 T01250037  RH  055%=      5-min Rain = 0
KMC5 260645Z 00000KT 13/04 A3023 RMK A01 T01270037  RH  054%=      5-min Rain = 0
KMC5 260646Z 00000KT 13/04 A3023 RMK A01 T01290037  RH  054%=      5-min Rain = 0
KMC5 260647Z 00000KT 13/04 A3023 RMK A01 T01300037  RH  053%=      5-min Rain = 0
KMC5 260648Z 00000KT 13/04 A3023 RMK A01 T01300037  RH  053%=      5-min Rain = 0
KMC5 260649Z 00000KT 13/04 A3023 RMK A01 T01300036  RH  053%=      5-min Rain = 0
KMC5 260650Z 00000KT 13/04 A3023 RMK A01 T01300036  RH  053%=      5-min Rain = 0
KMC5 260651Z 00000KT 13/04 A3023 RMK A01 T01300037  RH  053%=      5-min Rain = 0
KMC5 260652Z 00000KT 13/04 A3023 RMK A01 T01300037  RH  053%=      5-min Rain = 0
KMC5 260653Z 00000KT 13/04 A3023 RMK A01 T01300037  RH  053%=      5-min Rain = 0
KMC5 260654Z 28000KT 13/04 A3023 RMK A01 T01300036  RH  053%=      5-min Rain = 0
KMC5 260655Z 02001KT 13/04 A3022 RMK A01 T01310036  RH  052%=      5-min Rain = 0
KMC5 260656Z 07001KT 13/04 A3022 RMK A01 T01310035  RH  052%=      5-min Rain = 0
KMC5 260657Z 05001KT 13/04 A3022 RMK A01 T01320035  RH  052%=      5-min Rain = 0
KMC5 260658Z 04002KT 13/04 A3022 RMK A01 T01330035  RH  051%=      5-min Rain = 0
KMC5 260659Z 04002KT 14/04 A3022 RMK A01 T01350035  RH  051%=      5-min Rain = 0
KMC5 260700Z 03002KT 14/04 A3022 RMK A01 T01370035  RH  050%=      5-min Rain = 0
KMC5 260701Z 03002KT 14/04 A3023 RMK A01 T01370035  RH  050%=      5-min Rain = 0
KMC5 260702Z 02003KT 14/04 A3023 RMK A01 T01380036  RH  050%=      5-min Rain = 0
KMC5 260703Z 03003KT 14/04 A3023 RMK A01 T01370035  RH  050%=      5-min Rain = 0
KMC5 260704Z 04003KT 14/04 A3023 RMK A01 T01370035  RH  050%=      5-min Rain = 0
KMC5 260705Z 05003KT 14/04 A3023 RMK A01 T01370036  RH  050%=      5-min Rain = 0
KMC5 260706Z 05002KT 14/04 A3023 RMK A01 T01370036  RH  050%=      5-min Rain = 0
KMC5 260707Z 06002KT 14/04 A3023 RMK A01 T01370035  RH  050%=      5-min Rain = 0
KMC5 260708Z 06002KT 14/04 A3023 RMK A01 T01380035  RH  050%=      5-min Rain = 0
KMC5 260709Z 06002KT 14/04 A3023 RMK A01 T01380035  RH  050%=      5-min Rain = 0
KMC5 260710Z 06002KT 14/04 A3023 RMK A01 T01390035  RH  049%=      5-min Rain = 0
KMC5 260711Z 06001KT 14/04 A3023 RMK A01 T01400035  RH  049%=      5-min Rain = 0
KMC5 260712Z 06001KT 14/04 A3023 RMK A01 T01400035  RH  049%=      5-min Rain = 0
KMC5 260713Z 06002KT 14/03 A3023 RMK A01 T01410034  RH  049%=      5-min Rain = 0
KMC5 260714Z 05001KT 14/03 A3023 RMK A01 T01410034  RH  049%=      5-min Rain = 0
KMC5 260715Z 05002KT 14/04 A3023 RMK A01 T01410035  RH  049%=      5-min Rain = 0
KMC5 260716Z 05002KT 14/04 A3023 RMK A01 T01420035  RH  049%=      5-min Rain = 0
KMC5 260717Z 05002KT 14/04 A3023 RMK A01 T01420035  RH  049%=      5-min Rain = 0
KMC5 260718Z 05002KT 14/04 A3023 RMK A01 T01410035  RH  049%=      5-min Rain = 0
KMC5 260719Z 05002KT 14/04 A3023 RMK A01 T01410035  RH  049%=      5-min Rain = 0
KMC5 260720Z 05002KT 14/03 A3023 RMK A01 T01410034  RH  049%=      5-min Rain = 0
KMC5 260721Z 05002KT 14/04 A3023 RMK A01 T01410035  RH  049%=      5-min Rain = 0
KMC5 260722Z 04002KT 14/04 A3023 RMK A01 T01410035  RH  049%=      5-min Rain = 0
KMC5 260723Z 05002KT 14/04 A3023 RMK A01 T01410035  RH  049%=      5-min Rain = 0
KMC5 260724Z 04002KT 14/04 A3023 RMK A01 T01410035  RH  049%=      5-min Rain = 0
KMC5 260725Z 05002KT 14/04 A3023 RMK A01 T01410035  RH  049%=      5-min Rain = 0
KMC5 260726Z 05002KT 14/04 A3023 RMK A01 T01400036  RH  049%=      5-min Rain = 0
KMC5 260727Z 05002KT 14/04 A3023 RMK A01 T01400035  RH  049%=      5-min Rain = 0
KMC5 260728Z 05001KT 14/04 A3023 RMK A01 T01400035  RH  049%=      5-min Rain = 0
KMC5 260729Z 05002KT 14/04 A3023 RMK A01 T01400036  RH  049%=      5-min Rain = 0
KMC5 260730Z 06002KT 14/04 A3023 RMK A01 T01400036  RH  049%=      5-min Rain = 0
KMC5 260731Z 05002KT 14/04 A3023 RMK A01 T01400036  RH  049%=      5-min Rain = 0
KMC5 260732Z 07002KT 14/04 A3023 RMK A01 T01400036  RH  049%=      5-min Rain = 0
KMC5 260733Z 07002KT 14/04 A3023 RMK A01 T01400036  RH  049%=      5-min Rain = 0
KMC5 260734Z 07003KT 14/04 A3023 RMK A01 T01400035  RH  049%=      5-min Rain = 0
KMC5 260735Z 08002KT 14/04 A3023 RMK A01 T01410036  RH  049%=      5-min Rain = 0
KMC5 260736Z 07002KT 14/04 A3023 RMK A01 T01410036  RH  049%=      5-min Rain = 0
KMC5 260737Z 08002KT 14/04 A3023 RMK A01 T01410036  RH  049%=      5-min Rain = 0
KMC5 260738Z 08002KT 14/04 A3023 RMK A01 T01410036  RH  049%=      5-min Rain = 0
KMC5 260739Z 08002KT 14/04 A3023 RMK A01 T01420037  RH  049%=      5-min Rain = 0
KMC5 260740Z 09002KT 14/04 A3023 RMK A01 T01420038  RH  049%=      5-min Rain = 0
KMC5 260741Z 09002KT 14/04 A3023 RMK A01 T01400039  RH  050%=      5-min Rain = 0
KMC5 260742Z 09002KT 14/04 A3023 RMK A01 T01370038  RH  051%=      5-min Rain = 0
KMC5 260743Z 09002KT 14/04 A3023 RMK A01 T01350038  RH  052%=      5-min Rain = 0
KMC5 260744Z 09003KT 13/04 A3023 RMK A01 T01330038  RH  052%=      5-min Rain = 0
KMC5 260745Z 09002KT 13/04 A3023 RMK A01 T01320037  RH  053%=      5-min Rain = 0
KMC5 260746Z 10003KT 13/04 A3023 RMK A01 T01300037  RH  053%=      5-min Rain = 0
KMC5 260747Z 10003KT 13/04 A3023 RMK A01 T01300037  RH  053%=      5-min Rain = 0
KMC5 260748Z 10003KT 13/04 A3023 RMK A01 T01300037  RH  053%=      5-min Rain = 0
KMC5 260749Z 11003KT 13/04 A3023 RMK A01 T01300038  RH  054%=      5-min Rain = 0
KMC5 260750Z 12002KT 13/04 A3023 RMK A01 T01280039  RH  055%=      5-min Rain = 0
KMC5 260751Z 17001KT 12/04 A3023 RMK A01 T01210040  RH  058%=      5-min Rain = 0
KMC5 260752Z 20001KT 11/04 A3023 RMK A01 T01140041  RH  061%=      5-min Rain = 0
KMC5 260753Z 21002KT 11/04 A3023 RMK A01 T01080044  RH  064%=      5-min Rain = 0
KMC5 260754Z 21002KT 10/05 A3023 RMK A01 T01040045  RH  067%=      5-min Rain = 0
KMC5 260755Z 22003KT 10/05 A3023 RMK A01 T01020045  RH  068%=      5-min Rain = 0
KMC5 260756Z 23003KT 10/05 A3023 RMK A01 T01000046  RH  069%=      5-min Rain = 0
KMC5 260757Z 23003KT 10/05 A3024 RMK A01 T00980047  RH  070%=      5-min Rain = 0
KMC5 260758Z 24004KT 10/05 A3024 RMK A01 T00960047  RH  071%=      5-min Rain = 0
KMC5 260759Z 24004KT 09/05 A3024 RMK A01 T00940048  RH  073%=      5-min Rain = 0
KMC5 260800Z 24004KT 09/05 A3024 RMK A01 T00930048  RH  073%=      5-min Rain = 0
KMC5 260801Z 24004KT 09/05 A3024 RMK A01 T00920048  RH  074%=      5-min Rain = 0
KMC5 260802Z 24004KT 09/05 A3024 RMK A01 T00910048  RH  075%=      5-min Rain = 0
KMC5 260803Z 24004KT 09/05 A3024 RMK A01 T00910048  RH  074%=      5-min Rain = 0
KMC5 260804Z 24003KT 09/05 A3024 RMK A01 T00910048  RH  074%=      5-min Rain = 0
KMC5 260805Z 24003KT 09/05 A3024 RMK A01 T00920047  RH  073%=      5-min Rain = 0
KMC5 260806Z 22002KT 09/05 A3024 RMK A01 T00930047  RH  073%=      5-min Rain = 0
KMC5 260807Z 22002KT 10/05 A3024 RMK A01 T00950046  RH  072%=      5-min Rain = 0
KMC5 260808Z 22002KT 10/05 A3024 RMK A01 T00960046  RH  071%=      5-min Rain = 0
KMC5 260809Z 20001KT 10/05 A3024 RMK A01 T00970046  RH  070%=      5-min Rain = 0
KMC5 260810Z 16001KT 10/05 A3023 RMK A01 T00990045  RH  069%=      5-min Rain = 0
KMC5 260811Z 15001KT 10/05 A3023 RMK A01 T01000045  RH  069%=      5-min Rain = 0
KMC5 260812Z 14003KT 10/04 A3023 RMK A01 T01020043  RH  067%=      5-min Rain = 0
KMC5 260813Z 13003KT 11/04 A3023 RMK A01 T01060043  RH  065%=      5-min Rain = 0
KMC5 260814Z 13003KT 11/05 A3023 RMK A01 T01100045  RH  064%=      5-min Rain = 0
KMC5 260815Z 12002KT 11/05 A3023 RMK A01 T01130046  RH  063%=      5-min Rain = 0
KMC5 260816Z 11003KT 11/04 A3023 RMK A01 T01140044  RH  062%=      5-min Rain = 0
KMC5 260817Z 12003KT 12/05 A3023 RMK A01 T01160045  RH  062%=      5-min Rain = 0
KMC5 260818Z 11003KT 12/05 A3023 RMK A01 T01180046  RH  061%=      5-min Rain = 0
KMC5 260819Z 11003KT 12/05 A3023 RMK A01 T01200046  RH  061%=      5-min Rain = 0
KMC5 260820Z 11004KT 12/05 A3023 RMK A01 T01230046  RH  059%=      5-min Rain = 0
KMC5 260821Z 11004KT 13/05 A3023 RMK A01 T01260046  RH  058%=      5-min Rain = 0
KMC5 260822Z 11004KT 13/05 A3023 RMK A01 T01290047  RH  057%=      5-min Rain = 0
KMC5 260823Z 11004KT 13/05 A3023 RMK A01 T01310047  RH  057%=      5-min Rain = 0
KMC5 260824Z 11004KT 13/05 A3023 RMK A01 T01320046  RH  056%=      5-min Rain = 0
KMC5 260825Z 12004KT 13/05 A3023 RMK A01 T01320046  RH  056%=      5-min Rain = 0
KMC5 260826Z 12004KT 13/05 A3023 RMK A01 T01320046  RH  056%=      5-min Rain = 0
KMC5 260827Z 12003KT 13/05 A3023 RMK A01 T01320047  RH  056%=      5-min Rain = 0
KMC5 260828Z 14003KT 13/05 A3023 RMK A01 T01320047  RH  056%=      5-min Rain = 0
KMC5 260829Z 16003KT 13/05 A3023 RMK A01 T01310047  RH  056%=      5-min Rain = 0
KMC5 260830Z 17003KT 13/05 A3023 RMK A01 T01300048  RH  058%=      5-min Rain = 0
KMC5 260831Z 20003KT 12/05 A3023 RMK A01 T01240048  RH  060%=      5-min Rain = 0
KMC5 260832Z 21003KT 12/05 A3023 RMK A01 T01180047  RH  061%=      5-min Rain = 0
KMC5 260833Z 22004KT 11/04 A3023 RMK A01 T01140044  RH  062%=      5-min Rain = 0
KMC5 260834Z 23003KT 11/05 A3023 RMK A01 T01080045  RH  065%=      5-min Rain = 0
KMC5 260835Z 22003KT 10/04 A3023 RMK A01 T01030044  RH  067%=      5-min Rain = 0
KMC5 260836Z 22003KT 10/04 A3023 RMK A01 T01030043  RH  066%=      5-min Rain = 0
KMC5 260837Z 19003KT 10/04 A3023 RMK A01 T01040042  RH  065%=      5-min Rain = 0
KMC5 260838Z 19002KT 11/04 A3023 RMK A01 T01070043  RH  065%=      5-min Rain = 0
KMC5 260839Z 18002KT 11/05 A3023 RMK A01 T01090045  RH  065%=      5-min Rain = 0
KMC5 260840Z 15002KT 11/04 A3023 RMK A01 T01100044  RH  064%=      5-min Rain = 0
KMC5 260841Z 13002KT 11/04 A3023 RMK A01 T01110044  RH  063%=      5-min Rain = 0
KMC5 260842Z 12002KT 11/04 A3023 RMK A01 T01120044  RH  063%=      5-min Rain = 0
KMC5 260843Z 10002KT 11/04 A3023 RMK A01 T01130044  RH  062%=      5-min Rain = 0
KMC5 260844Z 10003KT 12/05 A3023 RMK A01 T01160046  RH  062%=      5-min Rain = 0
KMC5 260845Z 09004KT 12/05 A3022 RMK A01 T01200049  RH  062%=      5-min Rain = 0
KMC5 260846Z 09006KT 12/05 A3022 RMK A01 T01240051  RH  061%=      5-min Rain = 0
KMC5 260847Z 09007KT 13/06 A3022 RMK A01 T01280055  RH  061%=      5-min Rain = 0
KMC5 260848Z 09007KT 13/06 A3022 RMK A01 T01310056  RH  060%=      5-min Rain = 0
KMC5 260849Z 08007KT 13/06 A3022 RMK A01 T01310056  RH  061%=      5-min Rain = 0
KMC5 260850Z 08008KT 13/06 A3021 RMK A01 T01300057  RH  061%=      5-min Rain = 0
KMC5 260851Z 09008KT 13/06 A3021 RMK A01 T01280058  RH  062%=      5-min Rain = 0
KMC5 260852Z 09008KT 13/06 A3021 RMK A01 T01270059  RH  064%=      5-min Rain = 0
KMC5 260853Z 09008KT 13/06 A3021 RMK A01 T01260060  RH  064%=      5-min Rain = 0
KMC5 260854Z 09008KT 13/06 A3021 RMK A01 T01250060  RH  064%=      5-min Rain = 0
KMC5 260855Z 09007KT 12/06 A3021 RMK A01 T01240060  RH  065%=      5-min Rain = 0
KMC5 260856Z 09007KT 12/06 A3022 RMK A01 T01230058  RH  064%=      5-min Rain = 0
KMC5 260857Z 08006KT 12/06 A3022 RMK A01 T01220058  RH  065%=      5-min Rain = 0
KMC5 260858Z 08006KT 12/06 A3022 RMK A01 T01200057  RH  065%=      5-min Rain = 0
KMC5 260859Z 08006KT 12/06 A3022 RMK A01 T01200055  RH  065%=      5-min Rain = 0
KMC5 260900Z 08006KT 12/06 A3022 RMK A01 T01200055  RH  065%=      5-min Rain = 0
KMC5 260901Z 08007KT 12/05 A3022 RMK A01 T01190053  RH  064%=      5-min Rain = 0
KMC5 260902Z 08007KT 12/05 A3022 RMK A01 T01200053  RH  064%=      5-min Rain = 0
KMC5 260903Z 08007KT 12/05 A3022 RMK A01 T01200053  RH  063%=      5-min Rain = 0
KMC5 260904Z 08007KT 12/05 A3022 RMK A01 T01200053  RH  063%=      5-min Rain = 0
KMC5 260905Z 08007KT 12/05 A3022 RMK A01 T01210054  RH  063%=      5-min Rain = 0
KMC5 260906Z 08007KT 12/05 A3022 RMK A01 T01210054  RH  063%=      5-min Rain = 0
KMC5 260907Z 09007KT 12/06 A3022 RMK A01 T01220055  RH  064%=      5-min Rain = 0
KMC5 260908Z 09007KT 12/06 A3022 RMK A01 T01220055  RH  063%=      5-min Rain = 0
KMC5 260909Z 10007KT 12/06 A3022 RMK A01 T01220056  RH  064%=      5-min Rain = 0
KMC5 260910Z 11007KT 12/06 A3022 RMK A01 T01230057  RH  064%=      5-min Rain = 0
KMC5 260911Z 13004KT 12/06 A3022 RMK A01 T01220060  RH  066%=      5-min Rain = 0
KMC5 260912Z 12005KT 12/06 A3022 RMK A01 T01220059  RH  065%=      5-min Rain = 0
KMC5 260913Z 13005KT 12/06 A3022 RMK A01 T01220058  RH  065%=      5-min Rain = 0
KMC5 260914Z 15005KT 12/06 A3022 RMK A01 T01210061  RH  067%=      5-min Rain = 0
KMC5 260915Z 15006KT 12/06 A3022 RMK A01 T01200062  RH  068%=      5-min Rain = 0
KMC5 260916Z 15006KT 12/06 A3022 RMK A01 T01180061  RH  068%=      5-min Rain = 0
KMC5 260917Z 15006KT 12/06 A3023 RMK A01 T01180062  RH  068%=      5-min Rain = 0
KMC5 260918Z 15006KT 12/06 A3023 RMK A01 T01180063  RH  069%=      5-min Rain = 0
KMC5 260919Z 15005KT 12/06 A3023 RMK A01 T01180064  RH  069%=      5-min Rain = 0
KMC5 260920Z 14005KT 12/06 A3023 RMK A01 T01170062  RH  069%=      5-min Rain = 0
KMC5 260921Z 14005KT 12/06 A3023 RMK A01 T01170062  RH  069%=      5-min Rain = 0
KMC5 260922Z 15005KT 12/06 A3023 RMK A01 T01160062  RH  069%=      5-min Rain = 0
KMC5 260923Z 15005KT 12/06 A3022 RMK A01 T01160061  RH  069%=      5-min Rain = 0
KMC5 260924Z 15006KT 12/06 A3022 RMK A01 T01150061  RH  069%=      5-min Rain = 0
KMC5 260925Z 15006KT 12/06 A3022 RMK A01 T01150061  RH  069%=      5-min Rain = 0
KMC5 260926Z 15006KT 11/06 A3023 RMK A01 T01140062  RH  070%=      5-min Rain = 0
KMC5 260927Z 15007KT 11/06 A3023 RMK A01 T01140062  RH  070%=      5-min Rain = 0
KMC5 260928Z 16007KT 11/06 A3023 RMK A01 T01140063  RH  071%=      5-min Rain = 0
KMC5 260929Z 16006KT 11/06 A3023 RMK A01 T01140064  RH  071%=      5-min Rain = 0
KMC5 260930Z 16007KT 11/07 A3023 RMK A01 T01140065  RH  072%=      5-min Rain = 0
KMC5 260931Z 16006KT 11/07 A3023 RMK A01 T01140065  RH  072%=      5-min Rain = 0
KMC5 260932Z 16006KT 12/07 A3023 RMK A01 T01150066  RH  072%=      5-min Rain = 0
KMC5 260933Z 16006KT 12/07 A3023 RMK A01 T01150067  RH  073%=      5-min Rain = 0
KMC5 260934Z 16007KT 12/07 A3023 RMK A01 T01160068  RH  072%=      5-min Rain = 0
KMC5 260935Z 16007KT 12/07 A3023 RMK A01 T01170068  RH  072%=      5-min Rain = 0
KMC5 260936Z 15008KT 12/07 A3023 RMK A01 T01170069  RH  072%=      5-min Rain = 0
KMC5 260937Z 14008KT 12/07 A3022 RMK A01 T01180070  RH  072%=      5-min Rain = 0
KMC5 260938Z 14008KT 12/07 A3022 RMK A01 T01190070  RH  072%=      5-min Rain = 0
KMC5 260939Z 14007KT 12/07 A3022 RMK A01 T01190070  RH  072%=      5-min Rain = 0
KMC5 260940Z 14007KT 12/07 A3022 RMK A01 T01190070  RH  072%=      5-min Rain = 0
KMC5 260941Z 14007KT 12/07 A3022 RMK A01 T01190070  RH  072%=      5-min Rain = 0
KMC5 260942Z 14007KT 12/07 A3022 RMK A01 T01180070  RH  072%=      5-min Rain = 0
KMC5 260943Z 14008KT 12/07 A3022 RMK A01 T01180070  RH  072%=      5-min Rain = 0
KMC5 260944Z 13008KT 12/07 A3022 RMK A01 T01190071  RH  072%=      5-min Rain = 0
KMC5 260945Z 13008KT 12/07 A3022 RMK A01 T01190071  RH  072%=      5-min Rain = 0
KMC5 260946Z 13009KT 12/07 A3021 RMK A01 T01190071  RH  072%=      5-min Rain = 0
KMC5 260947Z 13009KT 12/07 A3021 RMK A01 T01180071  RH  073%=      5-min Rain = 0
KMC5 260948Z 13009KT 12/07 A3021 RMK A01 T01170071  RH  073%=      5-min Rain = 0
KMC5 260949Z 13009KT 12/07 A3021 RMK A01 T01170072  RH  074%=      5-min Rain = 0
KMC5 260950Z 13009KT 12/07 A3021 RMK A01 T01170072  RH  074%=      5-min Rain = 0
KMC5 260951Z 13009KT 12/07 A3021 RMK A01 T01170071  RH  073%=      5-min Rain = 0
KMC5 260952Z 13009KT 12/07 A3021 RMK A01 T01180071  RH  073%=      5-min Rain = 0
KMC5 260953Z 13010KT 12/07 A3021 RMK A01 T01180072  RH  074%=      5-min Rain = 0
KMC5 260954Z 13010KT 12/07 A3021 RMK A01 T01190073  RH  074%=      5-min Rain = 0
KMC5 260955Z 13009KT 12/07 A3021 RMK A01 T01200073  RH  073%=      5-min Rain = 0
KMC5 260956Z 13009KT 12/07 A3021 RMK A01 T01210073  RH  073%=      5-min Rain = 0
KMC5 260957Z 14009KT 12/07 A3021 RMK A01 T01210073  RH  072%=      5-min Rain = 0
KMC5 260958Z 14011KT 12/07 A3021 RMK A01 T01220073  RH  072%=      5-min Rain = 0
KMC5 260959Z 15011KT 12/07 A3021 RMK A01 T01220073  RH  072%=      5-min Rain = 0
KMC5 261000Z 15011KT 12/07 A3021 RMK A01 T01220072  RH  072%=      5-min Rain = 0
KMC5 261001Z 16011KT 12/07 A3021 RMK A01 T01220074  RH  073%=      5-min Rain = 0
KMC5 261002Z 16011KT 12/07 A3021 RMK A01 T01210074  RH  073%=      5-min Rain = 0
KMC5 261003Z 15010KT 12/07 A3021 RMK A01 T01210074  RH  073%=      5-min Rain = 0
KMC5 261004Z 14009KT 12/08 A3021 RMK A01 T01210075  RH  074%=      5-min Rain = 0
KMC5 261005Z 13010KT 12/08 A3021 RMK A01 T01210075  RH  074%=      5-min Rain = 0
KMC5 261006Z 13008KT 12/08 A3021 RMK A01 T01200075  RH  074%=      5-min Rain = 0
KMC5 261007Z 13008KT 12/08 A3021 RMK A01 T01210075  RH  074%=      5-min Rain = 0
KMC5 261008Z 12007KT 12/07 A3021 RMK A01 T01210074  RH  073%=      5-min Rain = 0
KMC5 261009Z 11006KT 12/07 A3021 RMK A01 T01210074  RH  073%=      5-min Rain = 0
KMC5 261010Z 11007KT 12/07 A3021 RMK A01 T01210074  RH  073%=      5-min Rain = 0
KMC5 261011Z 10008KT 12/07 A3021 RMK A01 T01210073  RH  073%=      5-min Rain = 0
KMC5 261012Z 10010KT 12/07 A3021 RMK A01 T01220073  RH  072%=      5-min Rain = 0
KMC5 261013Z 10010KT 12/07 A3021 RMK A01 T01230073  RH  071%=      5-min Rain = 0
KMC5 261014Z 10010KT 12/07 A3021 RMK A01 T01240074  RH  071%=      5-min Rain = 0
KMC5 261015Z 10010KT 13/07 A3021 RMK A01 T01250073  RH  071%=      5-min Rain = 0
KMC5 261016Z 10011KT 13/07 A3021 RMK A01 T01260073  RH  070%=      5-min Rain = 0
KMC5 261017Z 11010KT 13/07 A302 RMK A01 T01260073  RH  070%=      5-min Rain = 0
KMC5 261018Z 11010KT 13/07 A302 RMK A01 T01270073  RH  070%=      5-min Rain = 0
KMC5 261019Z 11010KT 13/07 A302 RMK A01 T01270072  RH  070%=      5-min Rain = 0
KMC5 261020Z 11009KT 13/07 A3021 RMK A01 T01270073  RH  070%=      5-min Rain = 0
KMC5 261021Z 11008KT 13/07 A3021 RMK A01 T01270074  RH  070%=      5-min Rain = 0
KMC5 261022Z 12008KT 13/07 A3021 RMK A01 T01270073  RH  070%=      5-min Rain = 0
KMC5 261023Z 13006KT 13/07 A3022 RMK A01 T01270074  RH  070%=      5-min Rain = 0
KMC5 261024Z 15006KT 13/07 A3022 RMK A01 T01270074  RH  070%=      5-min Rain = 0
KMC5 261025Z 16005KT 13/07 A3022 RMK A01 T01260074  RH  070%=      5-min Rain = 0
KMC5 261026Z 17005KT 13/07 A3022 RMK A01 T01250074  RH  071%=      5-min Rain = 0
KMC5 261027Z 18005KT 13/07 A3022 RMK A01 T01250073  RH  071%=      5-min Rain = 0
KMC5 261028Z 17005KT 13/07 A3022 RMK A01 T01250074  RH  071%=      5-min Rain = 0
KMC5 261029Z 16006KT 12/07 A3022 RMK A01 T01240073  RH  071%=      5-min Rain = 0
KMC5 261030Z 15005KT 12/07 A3022 RMK A01 T01230072  RH  071%=      5-min Rain = 0
KMC5 261031Z 14006KT 12/07 A3022 RMK A01 T01240071  RH  070%=      5-min Rain = 0
KMC5 261032Z 13006KT 12/07 A3022 RMK A01 T01240070  RH  070%=      5-min Rain = 0
KMC5 261033Z 13006KT 13/07 A3022 RMK A01 T01250071  RH  070%=      5-min Rain = 0
KMC5 261034Z 13007KT 13/07 A3022 RMK A01 T01250071  RH  070%=      5-min Rain = 0
KMC5 261035Z 14006KT 13/07 A3022 RMK A01 T01250071  RH  070%=      5-min Rain = 0
KMC5 261036Z 13005KT 12/07 A3022 RMK A01 T01240071  RH  070%=      5-min Rain = 0
KMC5 261037Z 12005KT 12/07 A3022 RMK A01 T01240071  RH  070%=      5-min Rain = 0
KMC5 261038Z 12004KT 12/07 A3022 RMK A01 T01240072  RH  071%=      5-min Rain = 0
KMC5 261039Z 12004KT 12/07 A3022 RMK A01 T01230072  RH  071%=      5-min Rain = 0
KMC5 261040Z 13004KT 12/07 A3022 RMK A01 T01220072  RH  071%=      5-min Rain = 0
KMC5 261041Z 14004KT 12/07 A3023 RMK A01 T01220072  RH  071%=      5-min Rain = 0
KMC5 261042Z 15005KT 12/07 A3023 RMK A01 T01220071  RH  071%=      5-min Rain = 0
KMC5 261043Z 15005KT 12/07 A3023 RMK A01 T01220071  RH  071%=      5-min Rain = 0
KMC5 261044Z 14006KT 12/07 A3023 RMK A01 T01220071  RH  071%=      5-min Rain = 0
KMC5 261045Z 15006KT 12/07 A3023 RMK A01 T01220070  RH  070%=      5-min Rain = 0
KMC5 261046Z 13006KT 12/07 A3023 RMK A01 T01230070  RH  070%=      5-min Rain = 0
KMC5 261047Z 13005KT 12/07 A3023 RMK A01 T01230070  RH  070%=      5-min Rain = 0
KMC5 261048Z 13005KT 12/07 A3023 RMK A01 T01230070  RH  070%=      5-min Rain = 0
KMC5 261049Z 12006KT 12/07 A3023 RMK A01 T01220070  RH  070%=      5-min Rain = 0
KMC5 261050Z 11005KT 12/07 A3023 RMK A01 T01220069  RH  070%=      5-min Rain = 0
KMC5 261051Z 11005KT 12/07 A3023 RMK A01 T01230069  RH  070%=      5-min Rain = 0
KMC5 261052Z 12005KT 12/07 A3023 RMK A01 T01240070  RH  070%=      5-min Rain = 0
KMC5 261053Z 13005KT 12/07 A3023 RMK A01 T01240070  RH  070%=      5-min Rain = 0
KMC5 261054Z 12005KT 12/07 A3023 RMK A01 T01230069  RH  070%=      5-min Rain = 0
KMC5 261055Z 13006KT 12/07 A3023 RMK A01 T01230069  RH  070%=      5-min Rain = 0
KMC5 261056Z 12007KT 12/07 A3022 RMK A01 T01240068  RH  069%=      5-min Rain = 0
KMC5 261057Z 12008KT 13/07 A3022 RMK A01 T01250069  RH  069%=      5-min Rain = 0
KMC5 261058Z 12007KT 12/07 A3022 RMK A01 T01240070  RH  069%=      5-min Rain = 0
KMC5 261059Z 12007KT 12/07 A3022 RMK A01 T01240071  RH  070%=      5-min Rain = 0
KMC5 261100Z 12008KT 12/07 A3022 RMK A01 T01230070  RH  070%=      5-min Rain = 0
KMC5 261101Z 12008KT 12/07 A3022 RMK A01 T01230070  RH  070%=      5-min Rain = 0
KMC5 261102Z 13008KT 12/07 A3022 RMK A01 T01230071  RH  070%=      5-min Rain = 0
KMC5 261103Z 12007KT 12/07 A3022 RMK A01 T01230071  RH  071%=      5-min Rain = 0
KMC5 261104Z 13007KT 12/07 A3021 RMK A01 T01220072  RH  072%=      5-min Rain = 0
KMC5 261105Z 13007KT 12/07 A3021 RMK A01 T01210072  RH  072%=      5-min Rain = 0
KMC5 261106Z 14006KT 12/07 A3022 RMK A01 T01200071  RH  072%=      5-min Rain = 0
KMC5 261107Z 14006KT 12/07 A3022 RMK A01 T01200072  RH  072%=      5-min Rain = 0
KMC5 261108Z 14007KT 12/07 A3022 RMK A01 T01200071  RH  072%=      5-min Rain = 0
KMC5 261109Z 14006KT 12/07 A3022 RMK A01 T01210069  RH  071%=      5-min Rain = 0
KMC5 261110Z 13006KT 12/07 A3021 RMK A01 T01220070  RH  071%=      5-min Rain = 0
KMC5 261111Z 13007KT 12/07 A3021 RMK A01 T01220071  RH  071%=      5-min Rain = 0
KMC5 261112Z 14008KT 12/07 A3021 RMK A01 T01220070  RH  071%=      5-min Rain = 0
KMC5 261113Z 13008KT 12/07 A3021 RMK A01 T01220069  RH  070%=      5-min Rain = 0
KMC5 261114Z 14009KT 12/07 A3021 RMK A01 T01240069  RH  069%=      5-min Rain = 0
KMC5 261115Z 15008KT 13/07 A3022 RMK A01 T01250068  RH  068%=      5-min Rain = 0
KMC5 261116Z 15007KT 13/07 A3022 RMK A01 T01250069  RH  068%=      5-min Rain = 0
KMC5 261117Z 15007KT 13/07 A3022 RMK A01 T01250069  RH  069%=      5-min Rain = 0
KMC5 261118Z 16008KT 13/07 A3022 RMK A01 T01250069  RH  069%=      5-min Rain = 0
KMC5 261119Z 16008KT 12/07 A3022 RMK A01 T01240070  RH  069%=      5-min Rain = 0
KMC5 261120Z 17008KT 12/07 A3022 RMK A01 T01240071  RH  070%=      5-min Rain = 0
KMC5 261121Z 17007KT 12/07 A3022 RMK A01 T01240071  RH  070%=      5-min Rain = 0
KMC5 261122Z 17007KT 12/07 A3022 RMK A01 T01220072  RH  071%=      5-min Rain = 0
KMC5 261123Z 17007KT 12/07 A3022 RMK A01 T01210072  RH  072%=      5-min Rain = 0
KMC5 261124Z 17008KT 12/07 A3022 RMK A01 T01210071  RH  072%=      5-min Rain = 0
KMC5 261125Z 17007KT 12/07 A3022 RMK A01 T01210071  RH  071%=      5-min Rain = 0
KMC5 261126Z 17008KT 12/07 A3022 RMK A01 T01210072  RH  072%=      5-min Rain = 0
KMC5 261127Z 17008KT 12/07 A3022 RMK A01 T01210071  RH  071%=      5-min Rain = 0
KMC5 261128Z 17008KT 12/07 A3023 RMK A01 T01220072  RH  071%=      5-min Rain = 0
KMC5 261129Z 17008KT 12/07 A3023 RMK A01 T01220071  RH  071%=      5-min Rain = 0
KMC5 261130Z 17008KT 12/07 A3023 RMK A01 T01230071  RH  071%=      5-min Rain = 0
KMC5 261131Z 17008KT 12/07 A3023 RMK A01 T01230072  RH  071%=      5-min Rain = 0
KMC5 261132Z 17008KT 12/07 A3023 RMK A01 T01220071  RH  071%=      5-min Rain = 0
KMC5 261133Z 17008KT 12/07 A3023 RMK A01 T01220071  RH  071%=      5-min Rain = 0
KMC5 261134Z 16008KT 12/07 A3022 RMK A01 T01230072  RH  071%=      5-min Rain = 0
KMC5 261135Z 16011KT 12/07 A3022 RMK A01 T01230070  RH  070%=      5-min Rain = 0
KMC5 261136Z 15011KT 12/07 A3022 RMK A01 T01240070  RH  070%=      5-min Rain = 0
KMC5 261137Z 14011KT 12/07 A3021 RMK A01 T01240071  RH  070%=      5-min Rain = 0
KMC5 261138Z 14011KT 12/07 A3021 RMK A01 T01240072  RH  070%=      5-min Rain = 0
KMC5 261139Z 15011KT 12/07 A3021 RMK A01 T01230072  RH  071%=      5-min Rain = 0
KMC5 261140Z 15012KT 12/07 A3021 RMK A01 T01220072  RH  071%=      5-min Rain = 0
KMC5 261141Z 15011KT 12/07 A3021 RMK A01 T01220072  RH  072%=      5-min Rain = 0
KMC5 261142Z 15012KT 12/07 A3021 RMK A01 T01220072  RH  072%=      5-min Rain = 0
KMC5 261143Z 16011KT 12/07 A3021 RMK A01 T01220071  RH  071%=      5-min Rain = 0
KMC5 261144Z 16011KT 12/07 A3021 RMK A01 T01220072  RH  071%=      5-min Rain = 0
KMC5 261145Z 16009KT 12/07 A3022 RMK A01 T01230072  RH  071%=      5-min Rain = 0
KMC5 261146Z 17009KT 12/07 A3022 RMK A01 T01220073  RH  072%=      5-min Rain = 0
KMC5 261147Z 17008KT 12/07 A3022 RMK A01 T01220073  RH  072%=      5-min Rain = 0
KMC5 261148Z 18008KT 12/07 A3022 RMK A01 T01220073  RH  072%=      5-min Rain = 0
KMC5 261149Z 18008KT 12/07 A3022 RMK A01 T01220073  RH  072%=      5-min Rain = 0
KMC5 261150Z 18009KT 12/07 A3023 RMK A01 T01220074  RH  072%=      5-min Rain = 0
KMC5 261151Z 18010KT 12/07 A3023 RMK A01 T01210073  RH  072%=      5-min Rain = 0
KMC5 261152Z 18008KT 12/07 A3023 RMK A01 T01210073  RH  072%=      5-min Rain = 0
KMC5 261153Z 17008KT 12/07 A3023 RMK A01 T01220074  RH  072%=      5-min Rain = 0
KMC5 261154Z 17009KT 12/07 A3023 RMK A01 T01220074  RH  072%=      5-min Rain = 0
KMC5 261155Z 17008KT 12/07 A3023 RMK A01 T01220073  RH  072%=      5-min Rain = 0
KMC5 261156Z 17009KT 12/07 A3023 RMK A01 T01220073  RH  072%=      5-min Rain = 0
KMC5 261157Z 17008KT 12/07 A3023 RMK A01 T01230072  RH  071%=      5-min Rain = 0
KMC5 261158Z 17008KT 12/07 A3023 RMK A01 T01230073  RH  071%=      5-min Rain = 0
KMC5 261159Z 17008KT 12/07 A3023 RMK A01 T01230073  RH  071%=      5-min Rain = 0
KMC5 261200Z 17007KT 12/07 A3023 RMK A01 T01230074  RH  072%=      5-min Rain = 0
KMC5 261201Z 17007KT 12/08 A3023 RMK A01 T01230075  RH  072%=      5-min Rain = 0
KMC5 261202Z 17008KT 12/08 A3023 RMK A01 T01230075  RH  073%=      5-min Rain = 0
KMC5 261203Z 17008KT 12/08 A3023 RMK A01 T01230075  RH  073%=      5-min Rain = 0
KMC5 261204Z 17007KT 12/08 A3023 RMK A01 T01230076  RH  073%=      5-min Rain = 0
KMC5 261205Z 17007KT 12/08 A3023 RMK A01 T01220077  RH  074%=      5-min Rain = 0
KMC5 261206Z 16008KT 12/08 A3023 RMK A01 T01220076  RH  074%=      5-min Rain = 0
KMC5 261207Z 16007KT 12/08 A3023 RMK A01 T01220077  RH  074%=      5-min Rain = 0
KMC5 261208Z 16009KT 12/08 A3023 RMK A01 T01220076  RH  073%=      5-min Rain = 0
KMC5 261209Z 16008KT 12/08 A3024 RMK A01 T01230075  RH  072%=      5-min Rain = 0
KMC5 261210Z 16006KT 12/08 A3024 RMK A01 T01230076  RH  073%=      5-min Rain = 0
KMC5 261211Z 16005KT 12/08 A3024 RMK A01 T01240077  RH  073%=      5-min Rain = 0
KMC5 261212Z 17006KT 12/08 A3024 RMK A01 T01230077  RH  073%=      5-min Rain = 0
KMC5 261213Z 17005KT 12/08 A3024 RMK A01 T01230075  RH  072%=      5-min Rain = 0
KMC5 261214Z 16005KT 12/08 A3024 RMK A01 T01240078  RH  073%=      5-min Rain = 0
KMC5 261215Z 16005KT 12/08 A3025 RMK A01 T01240076  RH  073%=      5-min Rain = 0
KMC5 261216Z 17004KT 13/08 A3025 RMK A01 T01250075  RH  072%=      5-min Rain = 0
KMC5 261217Z 18003KT 13/08 A3025 RMK A01 T01250078  RH  073%=      5-min Rain = 0
KMC5 261218Z 18003KT 13/08 A3025 RMK A01 T01250077  RH  072%=      5-min Rain = 0
KMC5 261219Z 18004KT 13/08 A3025 RMK A01 T01260078  RH  072%=      5-min Rain = 0
KMC5 261220Z 20004KT 13/08 A3025 RMK A01 T01260078  RH  072%=      5-min Rain = 0
KMC5 261221Z 21004KT 13/08 A3026 RMK A01 T01260079  RH  073%=      5-min Rain = 0
KMC5 261222Z 23004KT 13/08 A3026 RMK A01 T01260081  RH  074%=      5-min Rain = 0
KMC5 261223Z 23004KT 13/08 A3026 RMK A01 T01250079  RH  073%=      5-min Rain = 0
KMC5 261224Z 23005KT 13/08 A3026 RMK A01 T01250079  RH  074%=      5-min Rain = 0
KMC5 261225Z 21005KT 12/08 A3026 RMK A01 T01240079  RH  074%=      5-min Rain = 0
KMC5 261226Z 20005KT 12/08 A3026 RMK A01 T01240079  RH  074%=      5-min Rain = 0
KMC5 261227Z 21005KT 12/08 A3026 RMK A01 T01240080  RH  075%=      5-min Rain = 0
KMC5 261228Z 20005KT 12/08 A3025 RMK A01 T01230080  RH  075%=      5-min Rain = 0
KMC5 261229Z 21005KT 12/08 A3025 RMK A01 T01230080  RH  075%=      5-min Rain = 0
KMC5 261230Z 21005KT 12/08 A3025 RMK A01 T01230081  RH  076%=      5-min Rain = 0
KMC5 261231Z 21005KT 12/08 A3026 RMK A01 T01230080  RH  075%=      5-min Rain = 0
KMC5 261232Z 21007KT 12/08 A3026 RMK A01 T01220081  RH  076%=      5-min Rain = 0
KMC5 261233Z 21008KT 12/08 A3026 RMK A01 T01230081  RH  076%=      5-min Rain = 0
KMC5 261234Z 21007KT 12/08 A3026 RMK A01 T01220080  RH  075%=      5-min Rain = 0
KMC5 261235Z 21007KT 12/08 A3026 RMK A01 T01230082  RH  076%=      5-min Rain = 0
KMC5 261236Z 21007KT 12/08 A3027 RMK A01 T01220083  RH  077%=      5-min Rain = 0
KMC5 261237Z 22006KT 12/08 A3027 RMK A01 T01220083  RH  077%=      5-min Rain = 0
KMC5 261238Z 24006KT 12/09 A3027 RMK A01 T01210085  RH  078%=      5-min Rain = 0
KMC5 261239Z 24006KT 12/09 A3028 RMK A01 T01200086  RH  080%=      5-min Rain = 0
KMC5 261240Z 24007KT 12/09 A3028 RMK A01 T01190086  RH  080%=      5-min Rain = 0
KMC5 261241Z 24007KT 12/09 A3028 RMK A01 T01190085  RH  080%=      5-min Rain = 0
KMC5 261242Z 24007KT 12/09 A3028 RMK A01 T01190086  RH  080%=      5-min Rain = 0
KMC5 261243Z 24007KT 12/09 A3028 RMK A01 T01190085  RH  079%=      5-min Rain = 0
KMC5 261244Z 24007KT 12/09 A3028 RMK A01 T01200085  RH  079%=      5-min Rain = 0
KMC5 261245Z 24006KT 12/09 A3028 RMK A01 T01200086  RH  079%=      5-min Rain = 0
KMC5 261246Z 23007KT 12/09 A3028 RMK A01 T01200086  RH  080%=      5-min Rain = 0
KMC5 261247Z 24006KT 12/08 A3028 RMK A01 T01210084  RH  078%=      5-min Rain = 0
KMC5 261248Z 25006KT 12/09 A3028 RMK A01 T01210088  RH  080%=      5-min Rain = 0
KMC5 261249Z 25006KT 12/09 A3028 RMK A01 T01210088  RH  080%=      5-min Rain = 0
KMC5 261250Z 25006KT 12/09 A3028 RMK A01 T01210090  RH  081%=      5-min Rain = 0
KMC5 261251Z 25005KT 12/09 A3028 RMK A01 T01210088  RH  080%=      5-min Rain = 0
KMC5 261252Z 26004KT 12/09 A3028 RMK A01 T01210088  RH  080%=      5-min Rain = 0
KMC5 261253Z 23003KT 12/09 A3028 RMK A01 T01210088  RH  080%=      5-min Rain = 0
KMC5 261254Z 23003KT 12/09 A3028 RMK A01 T01210088  RH  080%=      5-min Rain = 0
KMC5 261255Z 23003KT 12/09 A3028 RMK A01 T01220085  RH  078%=      5-min Rain = 0
KMC5 261256Z 23004KT 12/09 A3028 RMK A01 T01220085  RH  078%=      5-min Rain = 0
KMC5 261257Z 24004KT 12/09 A3028 RMK A01 T01220087  RH  079%=      5-min Rain = 0
KMC5 261258Z 24005KT 12/09 A3028 RMK A01 T01220089  RH  080%=      5-min Rain = 0
KMC5 261259Z 24006KT 12/09 A3028 RMK A01 T01220087  RH  079%=      5-min Rain = 0
KMC5 261300Z 23006KT 12/09 A3028 RMK A01 T01210090  RH  081%=      5-min Rain = 0
KMC5 261301Z 23007KT 12/09 A3028 RMK A01 T01200090  RH  082%=      5-min Rain = 0
KMC5 261302Z 23007KT 12/09 A3028 RMK A01 T01200089  RH  081%=      5-min Rain = 0
KMC5 261303Z 22007KT 12/09 A3028 RMK A01 T01190090  RH  082%=      5-min Rain = 0
KMC5 261304Z 22006KT 12/09 A3028 RMK A01 T01190091  RH  083%=      5-min Rain = 0
KMC5 261305Z 21006KT 12/09 A3028 RMK A01 T01180091  RH  084%=      5-min Rain = 0
KMC5 261306Z 21006KT 12/09 A3028 RMK A01 T01170091  RH  084%=      5-min Rain = 0
KMC5 261307Z 20007KT 12/09 A3028 RMK A01 T01170091  RH  084%=      5-min Rain = 0
KMC5 261308Z 19008KT 12/09 A3027 RMK A01 T01170086  RH  081%=      5-min Rain = 0
KMC5 261309Z 19009KT 12/09 A3027 RMK A01 T01180086  RH  081%=      5-min Rain = 0
KMC5 261310Z 19008KT 12/09 A3027 RMK A01 T01190085  RH  079%=      5-min Rain = 0
KMC5 261311Z 19009KT 12/09 A3027 RMK A01 T01200086  RH  080%=      5-min Rain = 0
KMC5 261312Z 18009KT 12/09 A3027 RMK A01 T01200086  RH  080%=      5-min Rain = 0
KMC5 261313Z 18009KT 12/09 A3027 RMK A01 T01200087  RH  080%=      5-min Rain = 0
KMC5 261314Z 18008KT 12/09 A3027 RMK A01 T01200088  RH  081%=      5-min Rain = 0
KMC5 261315Z 18007KT 12/09 A3027 RMK A01 T01190090  RH  082%=      5-min Rain = 0
KMC5 261316Z 18007KT 12/09 A3027 RMK A01 T01180090  RH  083%=      5-min Rain = 0
KMC5 261317Z 18007KT 12/09 A3027 RMK A01 T01180091  RH  084%=      5-min Rain = 0
KMC5 261318Z 18007KT 12/09 A3027 RMK A01 T01170091  RH  084%=      5-min Rain = 0
KMC5 261319Z 18006KT 12/09 A3027 RMK A01 T01180092  RH  084%=      5-min Rain = 0
KMC5 261320Z 18006KT 12/09 A3027 RMK A01 T01180092  RH  084%=      5-min Rain = 0
KMC5 261321Z 18006KT 12/09 A3027 RMK A01 T01170092  RH  085%=      5-min Rain = 0
KMC5 261322Z 17006KT 12/09 A3027 RMK A01 T01170093  RH  085%=      5-min Rain = 0
KMC5 261323Z 17005KT 12/09 A3027 RMK A01 T01170094  RH  086%=      5-min Rain = 0
KMC5 261324Z 17005KT 12/10 A3027 RMK A01 T01170096  RH  087%=      5-min Rain = 0
KMC5 261325Z 17005KT 12/10 A3027 RMK A01 T01170096  RH  087%=      5-min Rain = 0
KMC5 261326Z 17005KT 12/10 A3027 RMK A01 T01170096  RH  087%=      5-min Rain = 0
KMC5 261327Z 18005KT 12/10 A3027 RMK A01 T01170097  RH  087%=      5-min Rain = 0
KMC5 261328Z 18006KT 12/10 A3027 RMK A01 T01170097  RH  087%=      5-min Rain = 0
KMC5 261329Z 18006KT 12/10 A3027 RMK A01 T01170096  RH  087%=      5-min Rain = 0
KMC5 261330Z 18006KT 12/10 A3027 RMK A01 T01170097  RH  087%=      5-min Rain = 0
KMC5 261331Z 18007KT 12/10 A3027 RMK A01 T01180096  RH  086%=      5-min Rain = 0
KMC5 261332Z 18007KT 12/09 A3027 RMK A01 T01180094  RH  085%=      5-min Rain = 0
KMC5 261333Z 18007KT 12/10 A3027 RMK A01 T01190095  RH  085%=      5-min Rain = 0
KMC5 261334Z 18007KT 12/09 A3027 RMK A01 T01200094  RH  084%=      5-min Rain = 0
KMC5 261335Z 18007KT 12/09 A3027 RMK A01 T01210090  RH  082%=      5-min Rain = 0
KMC5 261336Z 18007KT 12/09 A3027 RMK A01 T01220089  RH  080%=      5-min Rain = 0
KMC5 261337Z 18007KT 12/09 A3027 RMK A01 T01240089  RH  079%=      5-min Rain = 0
KMC5 261338Z 18006KT 13/09 A3027 RMK A01 T01260089  RH  078%=      5-min Rain = 0
KMC5 261339Z 19006KT 13/10 A3027 RMK A01 T01280095  RH  080%=      5-min Rain = 0
KMC5 261340Z 20006KT 13/09 A3027 RMK A01 T01300094  RH  078%=      5-min Rain = 0
KMC5 261341Z 20006KT 13/09 A3027 RMK A01 T01310093  RH  078%=      5-min Rain = 0
KMC5 261342Z 19006KT 13/10 A3026 RMK A01 T01320097  RH  079%=      5-min Rain = 0
KMC5 261343Z 18007KT 13/10 A3026 RMK A01 T01330096  RH  078%=      5-min Rain = 0
KMC5 261344Z 18009KT 14/09 A3026 RMK A01 T01350094  RH  077%=      5-min Rain = 0
KMC5 261345Z 18008KT 14/09 A3026 RMK A01 T01350092  RH  075%=      5-min Rain = 0
KMC5 261346Z 18008KT 14/09 A3026 RMK A01 T01350093  RH  076%=      5-min Rain = 0
KMC5 261347Z 18007KT 14/09 A3026 RMK A01 T01350092  RH  075%=      5-min Rain = 0
KMC5 261348Z 18008KT 14/10 A3026 RMK A01 T01350095  RH  077%=      5-min Rain = 0
KMC5 261349Z 17009KT 13/09 A3026 RMK A01 T01340092  RH  076%=      5-min Rain = 0
KMC5 261350Z 17008KT 13/09 A3026 RMK A01 T01340091  RH  075%=      5-min Rain = 0
KMC5 261351Z 18008KT 13/09 A3026 RMK A01 T01330090  RH  075%=      5-min Rain = 0
KMC5 261352Z 18009KT 13/09 A3026 RMK A01 T01330091  RH  076%=      5-min Rain = 0
KMC5 261353Z 18008KT 13/09 A3026 RMK A01 T01340091  RH  076%=      5-min Rain = 0
KMC5 261354Z 18008KT 14/10 A3026 RMK A01 T01370098  RH  077%=      5-min Rain = 0
KMC5 261355Z 18008KT 14/10 A3026 RMK A01 T01400096  RH  075%=      5-min Rain = 0
KMC5 261356Z 16009KT 14/10 A3026 RMK A01 T01410097  RH  075%=      5-min Rain = 0
KMC5 261357Z 16008KT 14/10 A3026 RMK A01 T01430098  RH  075%=      5-min Rain = 0
KMC5 261358Z 17010KT 15/10 A3026 RMK A01 T01450100  RH  074%=      5-min Rain = 0
KMC5 261359Z 17011KT 15/10 A3026 RMK A01 T01480095  RH  070%=      5-min Rain = 0
KMC5 261400Z 16012KT 15/09 A3026 RMK A01 T01470088  RH  068%=      5-min Rain = 0
KMC5 261401Z 17012KT 15/09 A3026 RMK A01 T01460086  RH  067%=      5-min Rain = 0
KMC5 261402Z 17011KT 15/09 A3026 RMK A01 T01460090  RH  069%=      5-min Rain = 0
KMC5 261403Z 17012KT 15/09 A3025 RMK A01 T01460086  RH  067%=      5-min Rain = 0
KMC5 261404Z 17012KT 15/09 A3025 RMK A01 T01460087  RH  067%=      5-min Rain = 0
KMC5 261405Z 17012KT 15/09 A3025 RMK A01 T01470089  RH  068%=      5-min Rain = 0
KMC5 261406Z 17014KT 15/09 A3025 RMK A01 T01490087  RH  067%=      5-min Rain = 0
KMC5 261407Z 16012KT 15/09 A3025 RMK A01 T01490087  RH  067%=      5-min Rain = 0
KMC5 261408Z 17013KT 15/09 A3025 RMK A01 T01470085  RH  066%=      5-min Rain = 0
KMC5 261409Z 16015KT 15/08 A3025 RMK A01 T01460083  RH  066%=      5-min Rain = 0
KMC5 261410Z 17012KT 14/09 A3025 RMK A01 T01440085  RH  067%=      5-min Rain = 0
KMC5 261411Z 17011KT 14/09 A3026 RMK A01 T01440086  RH  068%=      5-min Rain = 0
KMC5 261412Z 17011KT 14/08 A3026 RMK A01 T01430084  RH  068%=      5-min Rain = 0
KMC5 261413Z 18012KT 14/09 A3026 RMK A01 T01420085  RH  068%=      5-min Rain = 0
KMC5 261414Z 17010KT 14/09 A3026 RMK A01 T01420086  RH  069%=      5-min Rain = 0
KMC5 261415Z 17012KT 14/09 A3026 RMK A01 T01410085  RH  069%=      5-min Rain = 0
KMC5 261416Z 16011KT 14/08 A3026 RMK A01 T01410083  RH  068%=      5-min Rain = 0
KMC5 261417Z 17011KT 14/08 A3026 RMK A01 T01410083  RH  068%=      5-min Rain = 0
KMC5 261418Z 17013KT 14/08 A3026 RMK A01 T01410084  RH  068%=      5-min Rain = 0
KMC5 261419Z 17013KT 14/08 A3026 RMK A01 T01420084  RH  068%=      5-min Rain = 0
KMC5 261420Z 18009KT 14/09 A3026 RMK A01 T01430088  RH  069%=      5-min Rain = 0
KMC5 261421Z 19010KT 14/09 A3026 RMK A01 T01440090  RH  070%=      5-min Rain = 0
KMC5 261422Z 18012KT 14/09 A3026 RMK A01 T01440085  RH  067%=      5-min Rain = 0
KMC5 261423Z 18013KT 15/09 A3026 RMK A01 T01450086  RH  068%=      5-min Rain = 0
KMC5 261424Z 18013KT 15/09 A3026 RMK A01 T01450086  RH  068%=      5-min Rain = 0
KMC5 261425Z 18013KT 15/09 A3026 RMK A01 T01450085  RH  067%=      5-min Rain = 0
KMC5 261426Z 18013KT 15/09 A3026 RMK A01 T01450085  RH  067%=      5-min Rain = 0
KMC5 261427Z 18012KT 15/09 A3026 RMK A01 T01450087  RH  068%=      5-min Rain = 0
KMC5 261428Z 17013G19KT 15/09 A3026 RMK A01 T01450085  RH  067%=      5-min Rain = 0
KMC5 261429Z 18017KT 15/08 A3025 RMK A01 T01460081  RH  065%=      5-min Rain = 0
KMC5 261430Z 17016KT 15/08 A3026 RMK A01 T01450081  RH  065%=      5-min Rain = 0
KMC5 261431Z 18015KT 15/08 A3026 RMK A01 T01450084  RH  066%=      5-min Rain = 0
KMC5 261432Z 18015KT 15/08 A3026 RMK A01 T01450083  RH  066%=      5-min Rain = 0
KMC5 261433Z 18014KT 15/08 A3026 RMK A01 T01450083  RH  066%=      5-min Rain = 0
KMC5 261434Z 18015KT 15/08 A3026 RMK A01 T01450082  RH  066%=      5-min Rain = 0
KMC5 261435Z 18016KT 15/08 A3026 RMK A01 T01450079  RH  065%=      5-min Rain = 0
KMC5 261436Z 18011KT 14/08 A3026 RMK A01 T01440080  RH  065%=      5-min Rain = 0
KMC5 261437Z 18015KT 14/08 A3026 RMK A01 T01430080  RH  066%=      5-min Rain = 0
KMC5 261438Z 18016KT 14/08 A3026 RMK A01 T01440078  RH  065%=      5-min Rain = 0
KMC5 261439Z 18015G20KT 14/08 A3026 RMK A01 T01440077  RH  064%=      5-min Rain = 0
KMC5 261440Z 18015KT 14/07 A3026 RMK A01 T01440074  RH  063%=      5-min Rain = 0
KMC5 261441Z 18018KT 14/08 A3026 RMK A01 T01440075  RH  063%=      5-min Rain = 0
KMC5 261442Z 17017KT 15/08 A3026 RMK A01 T01450075  RH  063%=      5-min Rain = 0
KMC5 261443Z 18014KT 15/08 A3025 RMK A01 T01460077  RH  063%=      5-min Rain = 0
KMC5 261444Z 19014KT 15/08 A3025 RMK A01 T01490080  RH  063%=      5-min Rain = 0
KMC5 261445Z 17015KT 15/08 A3025 RMK A01 T01520081  RH  063%=      5-min Rain = 0
KMC5 261446Z 17016KT 15/08 A3025 RMK A01 T01540077  RH  060%=      5-min Rain = 0
KMC5 261447Z 17014KT 15/08 A3025 RMK A01 T01540081  RH  062%=      5-min Rain = 0
KMC5 261448Z 17016KT 16/08 A3025 RMK A01 T01560080  RH  060%=      5-min Rain = 0
KMC5 261449Z 16017KT 16/08 A3025 RMK A01 T01560077  RH  059%=      5-min Rain = 0
KMC5 261450Z 16015KT 16/08 A3025 RMK A01 T01570082  RH  061%=      5-min Rain = 0
KMC5 261451Z 17018KT 16/08 A3025 RMK A01 T01580075  RH  058%=      5-min Rain = 0
KMC5 261452Z 18016KT 16/07 A3025 RMK A01 T01570074  RH  058%=      5-min Rain = 0
KMC5 261453Z 18015KT 16/08 A3025 RMK A01 T01580076  RH  058%=      5-min Rain = 0
KMC5 261454Z 17017KT 16/08 A3025 RMK A01 T01590075  RH  057%=      5-min Rain = 0
KMC5 261455Z 17018KT 16/07 A3025 RMK A01 T01590074  RH  057%=      5-min Rain = 0
KMC5 261456Z 17018KT 16/08 A3025 RMK A01 T01580075  RH  058%=      5-min Rain = 0
KMC5 261457Z 18017G22KT 16/08 A3025 RMK A01 T01590076  RH  058%=      5-min Rain = 0
KMC5 261458Z 18018KT 16/07 A3025 RMK A01 T01600074  RH  057%=      5-min Rain = 0
KMC5 261459Z 18016KT 16/07 A3025 RMK A01 T01600074  RH  057%=      5-min Rain = 0
KMC5 261500Z 17017KT 16/08 A3025 RMK A01 T01610077  RH  058%=      5-min Rain = 0
KMC5 261501Z 17017KT 16/08 A3024 RMK A01 T01620078  RH  057%=      5-min Rain = 0
KMC5 261502Z 18014KT 16/08 A3024 RMK A01 T01630080  RH  058%=      5-min Rain = 0
KMC5 261503Z 18016KT 17/08 A3024 RMK A01 T01650081  RH  057%=      5-min Rain = 0
KMC5 261504Z 18015KT 17/08 A3024 RMK A01 T01650077  RH  056%=      5-min Rain = 0
KMC5 261505Z 18016KT 16/08 A3024 RMK A01 T01640078  RH  057%=      5-min Rain = 0
KMC5 261506Z 17017KT 16/08 A3024 RMK A01 T01640077  RH  056%=      5-min Rain = 0
KMC5 261507Z 18016KT 16/08 A3024 RMK A01 T01630077  RH  057%=      5-min Rain = 0
KMC5 261508Z 18015KT 16/08 A3024 RMK A01 T01640082  RH  058%=      5-min Rain = 0
KMC5 261509Z 18014KT 17/08 A3024 RMK A01 T01660083  RH  058%=      5-min Rain = 0
KMC5 261510Z 17014KT 17/08 A3024 RMK A01 T01670083  RH  058%=      5-min Rain = 0
KMC5 261511Z 18016KT 17/08 A3024 RMK A01 T01690084  RH  057%=      5-min Rain = 0
KMC5 261512Z 18019KT 17/08 A3024 RMK A01 T01690082  RH  056%=      5-min Rain = 0
KMC5 261513Z 17018KT 17/08 A3024 RMK A01 T01690078  RH  055%=      5-min Rain = 0
KMC5 261514Z 16017KT 17/08 A3024 RMK A01 T01670078  RH  056%=      5-min Rain = 0
KMC5 261515Z 17017KT 17/08 A3024 RMK A01 T01670079  RH  056%=      5-min Rain = 0
KMC5 261516Z 17017KT 17/08 A3024 RMK A01 T01680079  RH  056%=      5-min Rain = 0
KMC5 261517Z 19017KT 17/08 A3024 RMK A01 T01690079  RH  055%=      5-min Rain = 0
KMC5 261518Z 18016KT 17/08 A3024 RMK A01 T01690082  RH  057%=      5-min Rain = 0
KMC5 261519Z 17017KT 17/08 A3024 RMK A01 T01700079  RH  055%=      5-min Rain = 0
KMC5 261520Z 17020KT 17/07 A3024 RMK A01 T01710073  RH  052%=      5-min Rain = 0
KMC5 261521Z 17019G25KT 17/07 A3024 RMK A01 T01690072  RH  053%=      5-min Rain = 0
KMC5 261522Z 17018KT 17/07 A3024 RMK A01 T01690072  RH  053%=      5-min Rain = 0
KMC5 261523Z 17020KT 17/07 A3024 RMK A01 T01700068  RH  051%=      5-min Rain = 0
KMC5 261524Z 17017KT 17/07 A3024 RMK A01 T01700069  RH  052%=      5-min Rain = 0
KMC5 261525Z 18018KT 17/08 A3024 RMK A01 T01700077  RH  054%=      5-min Rain = 0
KMC5 261526Z 18021KT 17/07 A3024 RMK A01 T01720074  RH  052%=      5-min Rain = 0
KMC5 261527Z 18023KT 17/07 A3024 RMK A01 T01710067  RH  050%=      5-min Rain = 0
KMC5 261528Z 19022KT 17/07 A3024 RMK A01 T01690066  RH  050%=      5-min Rain = 0
KMC5 261529Z 18021G26KT 17/07 A3023 RMK A01 T01690067  RH  051%=      5-min Rain = 0
KMC5 261530Z 18022KT 17/07 A3024 RMK A01 T01690068  RH  052%=      5-min Rain = 0
KMC5 261531Z 18020KT 17/07 A3023 RMK A01 T01690066  RH  051%=      5-min Rain = 0
KMC5 261532Z 17019KT 17/07 A3024 RMK A01 T01710069  RH  051%=      5-min Rain = 0
KMC5 261533Z 17018KT 17/07 A3024 RMK A01 T01730069  RH  051%=      5-min Rain = 0
KMC5 261534Z 18021KT 17/07 A3024 RMK A01 T01730069  RH  050%=      5-min Rain = 0
KMC5 261535Z 18020G25KT 17/07 A3024 RMK A01 T01730068  RH  050%=      5-min Rain = 0
KMC5 261536Z 17019KT 17/07 A3024 RMK A01 T01730067  RH  050%=      5-min Rain = 0
KMC5 261537Z 18018KT 17/07 A3024 RMK A01 T01730071  RH  051%=      5-min Rain = 0
KMC5 261538Z 18021KT 17/07 A3024 RMK A01 T01730065  RH  049%=      5-min Rain = 0
KMC5 261539Z 18018KT 17/06 A3024 RMK A01 T01720061  RH  048%=      5-min Rain = 0
KMC5 261540Z 19019KT 17/06 A3023 RMK A01 T01710064  RH  049%=      5-min Rain = 0
KMC5 261541Z 17020KT 17/06 A3024 RMK A01 T01730063  RH  048%=      5-min Rain = 0
KMC5 261542Z 16021KT 17/05 A3023 RMK A01 T01740052  RH  045%=      5-min Rain = 0
KMC5 261543Z 17020KT 17/05 A3024 RMK A01 T01710053  RH  046%=      5-min Rain = 0
KMC5 261544Z 17017KT 17/06 A3024 RMK A01 T01710056  RH  046%=      5-min Rain = 0
KMC5 261545Z 17016KT 18/06 A3024 RMK A01 T01760060  RH  047%=      5-min Rain = 0
KMC5 261546Z 17019KT 18/06 A3024 RMK A01 T01780059  RH  046%=      5-min Rain = 0
KMC5 261547Z 18021KT 18/05 A3024 RMK A01 T01780054  RH  044%=      5-min Rain = 0
KMC5 261548Z 17019KT 18/06 A3024 RMK A01 T01760055  RH  045%=      5-min Rain = 0
KMC5 261549Z 17022KT 18/06 A3024 RMK A01 T01780055  RH  045%=      5-min Rain = 0
KMC5 261550Z 17020KT 18/05 A3024 RMK A01 T01780053  RH  044%=      5-min Rain = 0
KMC5 261551Z 16019KT 18/05 A3023 RMK A01 T01770050  RH  043%=      5-min Rain = 0
KMC5 261552Z 16018KT 18/05 A3023 RMK A01 T01780052  RH  044%=      5-min Rain = 0
KMC5 261553Z 18015KT 18/06 A3023 RMK A01 T01800061  RH  046%=      5-min Rain = 0
KMC5 261554Z 18017KT 18/06 A3023 RMK A01 T01820062  RH  045%=      5-min Rain = 0
KMC5 261555Z 17020KT 18/06 A3023 RMK A01 T01820058  RH  044%=      5-min Rain = 0
KMC5 261556Z 17018KT 18/05 A3023 RMK A01 T01790053  RH  043%=      5-min Rain = 0
KMC5 261557Z 17017KT 18/05 A3023 RMK A01 T01770053  RH  044%=      5-min Rain = 0
KMC5 261558Z 18019KT 18/05 A3023 RMK A01 T01770050  RH  043%=      5-min Rain = 0
KMC5 261559Z 17018KT 18/05 A3023 RMK A01 T01760049  RH  043%=      5-min Rain = 0
KMC5 261600Z 17017KT 18/05 A3023 RMK A01 T01760053  RH  044%=      5-min Rain = 0
KMC5 261601Z 17016KT 18/05 A3023 RMK A01 T01800054  RH  043%=      5-min Rain = 0
KMC5 261602Z 18020KT 18/05 A3023 RMK A01 T01820053  RH  043%=      5-min Rain = 0
KMC5 261603Z 17018G23KT 18/05 A3023 RMK A01 T01790050  RH  042%=      5-min Rain = 0
KMC5 261604Z 17019KT 18/05 A3023 RMK A01 T01760050  RH  043%=      5-min Rain = 0
KMC5 261605Z 17018KT 18/05 A3023 RMK A01 T01750048  RH  043%=      5-min Rain = 0
KMC5 261606Z 17020KT 18/05 A3023 RMK A01 T01770054  RH  044%=      5-min Rain = 0
KMC5 261607Z 18019KT 18/05 A3023 RMK A01 T01810054  RH  043%=      5-min Rain = 0
KMC5 261608Z 17019KT 19/05 A3023 RMK A01 T01850054  RH  042%=      5-min Rain = 0
KMC5 261609Z 17019KT 18/05 A3023 RMK A01 T01830053  RH  042%=      5-min Rain = 0
KMC5 261610Z 16018KT 18/06 A3023 RMK A01 T01820055  RH  043%=      5-min Rain = 0
KMC5 261611Z 16019KT 19/06 A3023 RMK A01 T01850056  RH  043%=      5-min Rain = 0
KMC5 261612Z 16018KT 19/06 A3023 RMK A01 T01860056  RH  043%=      5-min Rain = 0
KMC5 261613Z 17022KT 19/05 A3023 RMK A01 T01880051  RH  041%=      5-min Rain = 0
KMC5 261614Z 17022KT 19/05 A3023 RMK A01 T01890045  RH  039%=      5-min Rain = 0
KMC5 261615Z 18019KT 19/05 A3023 RMK A01 T01870048  RH  040%=      5-min Rain = 0
KMC5 261616Z 18017KT 19/05 A3023 RMK A01 T01850051  RH  041%=      5-min Rain = 0
KMC5 261617Z 18016KT 18/05 A3023 RMK A01 T01840053  RH  042%=      5-min Rain = 0
KMC5 261618Z 18019KT 19/05 A3023 RMK A01 T01850050  RH  041%=      5-min Rain = 0
KMC5 261619Z 18019KT 18/05 A3023 RMK A01 T01810046  RH  041%=      5-min Rain = 0
KMC5 261620Z 18020G25KT 18/05 A3023 RMK A01 T01800046  RH  041%=      5-min Rain = 0
KMC5 261621Z 18022KT 18/04 A3023 RMK A01 T01780044  RH  041%=      5-min Rain = 0
KMC5 261622Z 18021G26KT 18/04 A3023 RMK A01 T01760043  RH  041%=      5-min Rain = 0
KMC5 261623Z 17021G26KT 18/05 A3023 RMK A01 T01760047  RH  042%=      5-min Rain = 0
KMC5 261624Z 17018G24KT 18/04 A3023 RMK A01 T01770042  RH  041%=      5-min Rain = 0
KMC5 261625Z 16017G23KT 18/05 A3023 RMK A01 T01770047  RH  042%=      5-min Rain = 0
KMC5 261626Z 16019KT 18/04 A3023 RMK A01 T01790042  RH  040%=      5-min Rain = 0
KMC5 261627Z 16018KT 18/04 A3023 RMK A01 T01790044  RH  041%=      5-min Rain = 0
KMC5 261628Z 16019KT 18/05 A3023 RMK A01 T01800046  RH  041%=      5-min Rain = 0
KMC5 261629Z 17019G24KT 18/05 A3023 RMK A01 T01810045  RH  041%=      5-min Rain = 0
KMC5 261630Z 16019KT 18/04 A3023 RMK A01 T01820040  RH  039%=      5-min Rain = 0
KMC5 261631Z 16017KT 18/04 A3023 RMK A01 T01830039  RH  038%=      5-min Rain = 0
KMC5 261632Z 16016KT 18/04 A3023 RMK A01 T01840044  RH  040%=      5-min Rain = 0
KMC5 261633Z 16014KT 19/05 A3023 RMK A01 T01850047  RH  040%=      5-min Rain = 0
KMC5 261634Z 16018KT 19/05 A3023 RMK A01 T01880052  RH  041%=      5-min Rain = 0
KMC5 261635Z 17016KT 19/05 A3023 RMK A01 T01890051  RH  040%=      5-min Rain = 0
KMC5 261636Z 16017KT 19/05 A3023 RMK A01 T01900052  RH  040%=      5-min Rain = 0
KMC5 261637Z 17016G21KT 19/05 A3023 RMK A01 T01920052  RH  040%=      5-min Rain = 0
KMC5 261638Z 17019G24KT 20/05 A3023 RMK A01 T01960049  RH  038%=      5-min Rain = 0
KMC5 261639Z 17017KT 19/05 A3023 RMK A01 T01940050  RH  039%=      5-min Rain = 0
KMC5 261640Z 17019KT 19/05 A3023 RMK A01 T01930049  RH  039%=      5-min Rain = 0
KMC5 261641Z 18018KT 19/05 A3023 RMK A01 T01870045  RH  039%=      5-min Rain = 0
KMC5 261642Z 17020KT 19/04 A3023 RMK A01 T01850043  RH  039%=      5-min Rain = 0
KMC5 261643Z 16017KT 19/04 A3023 RMK A01 T01860043  RH  039%=      5-min Rain = 0
KMC5 261644Z 17021KT 19/04 A3023 RMK A01 T01880041  RH  038%=      5-min Rain = 0
KMC5 261645Z 17020KT 19/04 A3023 RMK A01 T01880036  RH  037%=      5-min Rain = 0
KMC5 261646Z 16020KT 19/04 A3023 RMK A01 T01870039  RH  037%=      5-min Rain = 0
KMC5 261647Z 16020KT 19/04 A3023 RMK A01 T01880040  RH  038%=      5-min Rain = 0
KMC5 261648Z 16020KT 19/04 A3023 RMK A01 T01880039  RH  037%=      5-min Rain = 0
KMC5 261649Z 16018KT 19/04 A3023 RMK A01 T01860040  RH  038%=      5-min Rain = 0
KMC5 261650Z 15020KT 19/05 A3023 RMK A01 T01860045  RH  039%=      5-min Rain = 0
KMC5 261651Z 15021KT 19/05 A3023 RMK A01 T01890045  RH  039%=      5-min Rain = 0
KMC5 261652Z 16019KT 19/04 A3022 RMK A01 T01910038  RH  036%=      5-min Rain = 0
KMC5 261653Z 16020KT 19/04 A3023 RMK A01 T01900041  RH  037%=      5-min Rain = 0
KMC5 261654Z 16019KT 19/04 A3023 RMK A01 T01900038  RH  037%=      5-min Rain = 0
KMC5 261655Z 15019KT 19/04 A3022 RMK A01 T01890039  RH  037%=      5-min Rain = 0
KMC5 261656Z 15020KT 19/04 A3022 RMK A01 T01890035  RH  036%=      5-min Rain = 0
KMC5 261657Z 15018G24KT 19/03 A3022 RMK A01 T01900033  RH  035%=      5-min Rain = 0
KMC5 261658Z 17021KT 19/04 A3022 RMK A01 T01890036  RH  036%=      5-min Rain = 0
KMC5 261659Z 17017KT 19/04 A3022 RMK A01 T01870044  RH  039%=      5-min Rain = 0
KMC5 261700Z 17019KT 19/04 A3022 RMK A01 T01900043  RH  038%=      5-min Rain = 0
KMC5 261701Z 16018KT 19/04 A3022 RMK A01 T01910042  RH  037%=      5-min Rain = 0
KMC5 261702Z 17020KT 19/04 A3022 RMK A01 T01910036  RH  036%=      5-min Rain = 0
KMC5 261703Z 17019KT 19/04 A3022 RMK A01 T01910035  RH  036%=      5-min Rain = 0
KMC5 261704Z 17016KT 19/04 A3022 RMK A01 T01930036  RH  035%=      5-min Rain = 0
KMC5 261705Z 17016KT 20/04 A3023 RMK A01 T01950037  RH  035%=      5-min Rain = 0
KMC5 261706Z 16018KT 20/03 A3022 RMK A01 T01960032  RH  034%=      5-min Rain = 0
KMC5 261707Z 16017KT 20/04 A3022 RMK A01 T01970036  RH  034%=      5-min Rain = 0
KMC5 261708Z 16020KT 20/04 A3022 RMK A01 T01970040  RH  035%=      5-min Rain = 0
KMC5 261709Z 16021KT 20/03 A3022 RMK A01 T01950034  RH  034%=      5-min Rain = 0
KMC5 261710Z 17019KT 19/04 A3022 RMK A01 T01930036  RH  035%=      5-min Rain = 0
KMC5 261711Z 16017KT 19/04 A3022 RMK A01 T01930037  RH  036%=      5-min Rain = 0
KMC5 261712Z 16021KT 19/04 A3022 RMK A01 T01930039  RH  036%=      5-min Rain = 0
KMC5 261713Z 15017G23KT 19/04 A3022 RMK A01 T01910036  RH  036%=      5-min Rain = 0
KMC5 261714Z 15019KT 19/04 A3022 RMK A01 T01900036  RH  036%=      5-min Rain = 0
KMC5 261715Z 16020KT 19/04 A3022 RMK A01 T01930037  RH  036%=      5-min Rain = 0
KMC5 261716Z 16019KT 20/04 A3022 RMK A01 T01960036  RH  035%=      5-min Rain = 0
KMC5 261717Z 16019G24KT 20/04 A3021 RMK A01 T01970038  RH  035%=      5-min Rain = 0
KMC5 261718Z 16018KT 20/04 A3021 RMK A01 T01970043  RH  036%=      5-min Rain = 0
KMC5 261719Z 17017KT 20/04 A3021 RMK A01 T01990042  RH  035%=      5-min Rain = 0
KMC5 261720Z 17018G23KT 20/04 A3021 RMK A01 T01970041  RH  036%=      5-min Rain = 0
KMC5 261721Z 15019KT 20/03 A3021 RMK A01 T01970034  RH  034%=      5-min Rain = 0
KMC5 261722Z 16021KT 20/04 A3021 RMK A01 T01970037  RH  035%=      5-min Rain = 0
KMC5 261723Z 16020KT 20/04 A3021 RMK A01 T01960038  RH  035%=      5-min Rain = 0
KMC5 261724Z 15018KT 19/04 A3021 RMK A01 T01940035  RH  035%=      5-min Rain = 0
KMC5 261725Z 16017KT 20/04 A3021 RMK A01 T01960042  RH  036%=      5-min Rain = 0
KMC5 261726Z 15020KT 20/04 A3021 RMK A01 T02000039  RH  035%=      5-min Rain = 0
KMC5 261727Z 16019KT 20/04 A3021 RMK A01 T01990037  RH  034%=      5-min Rain = 0
KMC5 261728Z 16018KT 20/04 A3021 RMK A01 T01970039  RH  035%=      5-min Rain = 0
KMC5 261729Z 16016KT 20/04 A3021 RMK A01 T01970042  RH  036%=      5-min Rain = 0
KMC5 261730Z 16017KT 20/05 A3021 RMK A01 T01990046  RH  036%=      5-min Rain = 0
KMC5 261731Z 17020KT 20/04 A3021 RMK A01 T02010044  RH  035%=      5-min Rain = 0
KMC5 261732Z 18020KT 20/03 A3021 RMK A01 T01990034  RH  033%=      5-min Rain = 0
KMC5 261733Z 17018KT 20/04 A3021 RMK A01 T01970035  RH  034%=      5-min Rain = 0
KMC5 261734Z 18018KT 20/03 A3021 RMK A01 T01960033  RH  034%=      5-min Rain = 0
KMC5 261735Z 18018KT 20/03 A3021 RMK A01 T01960029  RH  033%=      5-min Rain = 0
KMC5 261736Z 18018G23KT 19/03 A3021 RMK A01 T01940031  RH  034%=      5-min Rain = 0
KMC5 261737Z 18018KT 19/03 A3021 RMK A01 T01930028  RH  033%=      5-min Rain = 0
KMC5 261738Z 18017KT 19/03 A3021 RMK A01 T01900033  RH  035%=      5-min Rain = 0
KMC5 261739Z 17021KT 19/03 A302 RMK A01 T01930033  RH  035%=      5-min Rain = 0
KMC5 261740Z 18020KT 19/03 A3021 RMK A01 T01920028  RH  034%=      5-min Rain = 0
KMC5 261741Z 17019KT 19/03 A3021 RMK A01 T01910032  RH  035%=      5-min Rain = 0
KMC5 261742Z 16018KT 19/03 A3021 RMK A01 T01920031  RH  034%=      5-min Rain = 0
KMC5 261743Z 16019KT 19/03 A302 RMK A01 T01920034  RH  035%=      5-min Rain = 0
KMC5 261744Z 16017KT 19/04 A302 RMK A01 T01920036  RH  036%=      5-min Rain = 0
KMC5 261745Z 16015KT 19/04 A302 RMK A01 T01940038  RH  036%=      5-min Rain = 0
KMC5 261746Z 15017G23KT 20/04 A302 RMK A01 T01970041  RH  036%=      5-min Rain = 0
KMC5 261747Z 16016KT 20/04 A302 RMK A01 T01990041  RH  035%=      5-min Rain = 0
KMC5 261748Z 15016G21KT 20/04 A302 RMK A01 T01990037  RH  034%=      5-min Rain = 0
KMC5 261749Z 15018KT 20/04 A302 RMK A01 T01990037  RH  034%=      5-min Rain = 0
KMC5 261750Z 16018G24KT 20/04 A302 RMK A01 T01990037  RH  034%=      5-min Rain = 0
KMC5 261751Z 15020KT 20/04 A3019 RMK A01 T01980037  RH  035%=      5-min Rain = 0
KMC5 261752Z 15019KT 20/04 A3019 RMK A01 T01970036  RH  034%=      5-min Rain = 0
KMC5 261753Z 15020KT 20/04 A3019 RMK A01 T01970037  RH  035%=      5-min Rain = 0
KMC5 261754Z 16016KT 20/04 A3019 RMK A01 T01980040  RH  035%=      5-min Rain = 0
KMC5 261755Z 17016G21KT 20/04 A3019 RMK A01 T01990040  RH  035%=      5-min Rain = 0
KMC5 261756Z 17020KT 20/05 A3019 RMK A01 T02010046  RH  036%=      5-min Rain = 0
KMC5 261757Z 17018KT 20/04 A3019 RMK A01 T02040044  RH  035%=      5-min Rain = 0
KMC5 261758Z 16019KT 21/05 A3019 RMK A01 T02060045  RH  035%=      5-min Rain = 0
KMC5 261759Z 16015G21KT 21/05 A3019 RMK A01 T02070046  RH  035%=      5-min Rain = 0
KMC5 261800Z 16017KT 21/04 A3019 RMK A01 T02070041  RH  034%=      5-min Rain = 0
KMC5 261801Z 16020KT 21/04 A3019 RMK A01 T02050041  RH  034%=      5-min Rain = 0
KMC5 261802Z 16018KT 20/04 A3019 RMK A01 T02030041  RH  034%=      5-min Rain = 0
KMC5 261803Z 17019KT 20/04 A3019 RMK A01 T02000039  RH  035%=      5-min Rain = 0
KMC5 261804Z 17015G20KT 20/04 A3019 RMK A01 T01970039  RH  035%=      5-min Rain = 0
KMC5 261805Z 16013KT 20/05 A3019 RMK A01 T01990047  RH  037%=      5-min Rain = 0
KMC5 261806Z 15013KT 20/04 A3018 RMK A01 T02020041  RH  035%=      5-min Rain = 0
KMC5 261807Z 14015G24KT 20/05 A3018 RMK A01 T02020046  RH  036%=      5-min Rain = 0
KMC5 261808Z 15018KT 21/05 A3018 RMK A01 T02060047  RH  035%=      5-min Rain = 0
KMC5 261809Z 16016G21KT 21/04 A3018 RMK A01 T02080044  RH  034%=      5-min Rain = 0
KMC5 261810Z 16014KT 21/04 A3018 RMK A01 T02050043  RH  034%=      5-min Rain = 0
KMC5 261811Z 16019KT 21/05 A3018 RMK A01 T02050045  RH  035%=      5-min Rain = 0
KMC5 261812Z 16020KT 21/04 A3018 RMK A01 T02050043  RH  034%=      5-min Rain = 0
KMC5 261813Z 16015G20KT 21/04 A3018 RMK A01 T02050043  RH  034%=      5-min Rain = 0
KMC5 261814Z 15018KT 20/04 A3018 RMK A01 T02040044  RH  035%=      5-min Rain = 0
KMC5 261815Z 16017KT 21/04 A3018 RMK A01 T02050044  RH  035%=      5-min Rain = 0
KMC5 261816Z 15018G24KT 21/05 A3018 RMK A01 T02070046  RH  035%=      5-min Rain = 0
KMC5 261817Z 17021KT 21/04 A3018 RMK A01 T02090044  RH  034%=      5-min Rain = 0
KMC5 261818Z 17020G25KT 21/04 A3018 RMK A01 T02090043  RH  034%=      5-min Rain = 0
KMC5 261819Z 16019G24KT 21/04 A3018 RMK A01 T02060038  RH  033%=      5-min Rain = 0
KMC5 261820Z 17017KT 20/04 A3018 RMK A01 T02040037  RH  033%=      5-min Rain = 0
KMC5 261821Z 15021KT 20/04 A3017 RMK A01 T02020036  RH  033%=      5-min Rain = 0
KMC5 261822Z 15021G26KT 20/04 A3017 RMK A01 T02020036  RH  033%=      5-min Rain = 0
KMC5 261823Z 16021KT 20/04 A3017 RMK A01 T02030037  RH  034%=      5-min Rain = 0
KMC5 261824Z 17022KT 20/04 A3017 RMK A01 T02030036  RH  033%=      5-min Rain = 0
KMC5 261825Z 17019KT 20/03 A3017 RMK A01 T02010034  RH  033%=      5-min Rain = 0
KMC5 261826Z 18018KT 20/04 A3017 RMK A01 T02000036  RH  034%=      5-min Rain = 0
KMC5 261827Z 17016KT 20/04 A3017 RMK A01 T02010041  RH  035%=      5-min Rain = 0
KMC5 261828Z 17014KT 21/04 A3017 RMK A01 T02050044  RH  035%=      5-min Rain = 0
KMC5 261829Z 18018G24KT 21/04 A3017 RMK A01 T02050038  RH  033%=      5-min Rain = 0
KMC5 261830Z 16021KT 20/04 A3017 RMK A01 T02030041  RH  034%=      5-min Rain = 0
KMC5 261831Z 15021KT 20/04 A3017 RMK A01 T02030037  RH  034%=      5-min Rain = 0
KMC5 261832Z 15018G24KT 20/04 A3017 RMK A01 T02020038  RH  034%=      5-min Rain = 0
KMC5 261833Z 16020KT 20/04 A3017 RMK A01 T02020037  RH  034%=      5-min Rain = 0
KMC5 261834Z 15019KT 20/04 A3017 RMK A01 T02020038  RH  034%=      5-min Rain = 0
KMC5 261835Z 15020KT 20/04 A3017 RMK A01 T02020036  RH  033%=      5-min Rain = 0
KMC5 261836Z 15020G25KT 20/03 A3017 RMK A01 T02010034  RH  033%=      5-min Rain = 0
KMC5 261837Z 17019KT 20/04 A3017 RMK A01 T02000036  RH  034%=      5-min Rain = 0
KMC5 261838Z 16017KT 20/04 A3017 RMK A01 T02010039  RH  034%=      5-min Rain = 0
KMC5 261839Z 17018G23KT 20/04 A3017 RMK A01 T02040043  RH  035%=      5-min Rain = 0
KMC5 261840Z 18016KT 21/04 A3017 RMK A01 T02060041  RH  034%=      5-min Rain = 0
KMC5 261841Z 16018KT 21/04 A3017 RMK A01 T02050042  RH  034%=      5-min Rain = 0
KMC5 261842Z 15020G25KT 21/04 A3017 RMK A01 T02050040  RH  034%=      5-min Rain = 0
KMC5 261843Z 16017KT 21/04 A3017 RMK A01 T02060041  RH  034%=      5-min Rain = 0
KMC5 261844Z 15020KT 21/04 A3016 RMK A01 T02070039  RH  033%=      5-min Rain = 0
KMC5 261845Z 16022KT 21/04 A3016 RMK A01 T02080040  RH  033%=      5-min Rain = 0
KMC5 261846Z 17021KT 21/04 A3017 RMK A01 T02080038  RH  033%=      5-min Rain = 0
KMC5 261847Z 17020KT 21/04 A3017 RMK A01 T02070042  RH  034%=      5-min Rain = 0
KMC5 261848Z 18019KT 21/04 A3016 RMK A01 T02080040  RH  033%=      5-min Rain = 0
KMC5 261849Z 18020KT 21/04 A3016 RMK A01 T02070041  RH  034%=      5-min Rain = 0
KMC5 261850Z 17021KT 21/04 A3016 RMK A01 T02090042  RH  033%=      5-min Rain = 0
KMC5 261851Z 17018KT 21/04 A3016 RMK A01 T02100042  RH  033%=      5-min Rain = 0
KMC5 261852Z 17019KT 21/04 A3016 RMK A01 T02110042  RH  033%=      5-min Rain = 0
KMC5 261853Z 18020KT 21/04 A3016 RMK A01 T02130042  RH  033%=      5-min Rain = 0
KMC5 261854Z 18022KT 21/04 A3016 RMK A01 T02120037  RH  032%=      5-min Rain = 0
KMC5 261855Z 18021G29KT 21/04 A3016 RMK A01 T02090039  RH  033%=      5-min Rain = 0
KMC5 261856Z 18023KT 21/04 A3016 RMK A01 T02090038  RH  032%=      5-min Rain = 0
KMC5 261857Z 18021KT 21/04 A3016 RMK A01 T02080036  RH  032%=      5-min Rain = 0
KMC5 261858Z 17017KT 21/04 A3016 RMK A01 T02080041  RH  033%=      5-min Rain = 0
KMC5 261859Z 16018G23KT 21/04 A3016 RMK A01 T02110043  RH  033%=      5-min Rain = 0
KMC5 261900Z 16016G22KT 21/04 A3016 RMK A01 T02120040  RH  032%=      5-min Rain = 0
KMC5 261901Z 15019KT 21/04 A3016 RMK A01 T02120041  RH  033%=      5-min Rain = 0
KMC5 261902Z 15019G24KT 21/04 A3016 RMK A01 T02120041  RH  033%=      5-min Rain = 0
KMC5 261903Z 15022G27KT 21/04 A3015 RMK A01 T02130040  RH  032%=      5-min Rain = 0
KMC5 261904Z 16020KT 21/04 A3015 RMK A01 T02130041  RH  032%=      5-min Rain = 0
KMC5 261905Z 16019G25KT 21/04 A3015 RMK A01 T02140043  RH  033%=      5-min Rain = 0
KMC5 261906Z 15022KT 21/04 A3015 RMK A01 T02140043  RH  033%=      5-min Rain = 0
KMC5 261907Z 16018G24KT 21/04 A3015 RMK A01 T02140042  RH  032%=      5-min Rain = 0
KMC5 261908Z 18017KT 22/05 A3015 RMK A01 T02160049  RH  034%=      5-min Rain = 0
KMC5 261909Z 18017KT 22/05 A3015 RMK A01 T02190047  RH  033%=      5-min Rain = 0
KMC5 261910Z 18020KT 22/04 A3015 RMK A01 T02210044  RH  031%=      5-min Rain = 0
KMC5 261911Z 19021KT 22/04 A3015 RMK A01 T02170037  RH  031%=      5-min Rain = 0
KMC5 261912Z 18021G26KT 21/04 A3015 RMK A01 T02140038  RH  032%=      5-min Rain = 0
KMC5 261913Z 19019KT 21/04 A3015 RMK A01 T02130040  RH  032%=      5-min Rain = 0
KMC5 261914Z 18021KT 21/04 A3015 RMK A01 T02130041  RH  032%=      5-min Rain = 0
KMC5 261915Z 18020KT 21/04 A3015 RMK A01 T02130040  RH  032%=      5-min Rain = 0
KMC5 261916Z 19017KT 21/04 A3015 RMK A01 T02120042  RH  033%=      5-min Rain = 0
KMC5 261917Z 18017KT 22/05 A3015 RMK A01 T02150046  RH  033%=      5-min Rain = 0
KMC5 261918Z 18021KT 22/05 A3015 RMK A01 T02200047  RH  032%=      5-min Rain = 0
KMC5 261919Z 18022KT 22/04 A3015 RMK A01 T02200040  RH  031%=      5-min Rain = 0
KMC5 261920Z 17020G25KT 22/04 A3015 RMK A01 T02170039  RH  031%=      5-min Rain = 0
KMC5 261921Z 17019KT 22/04 A3015 RMK A01 T02160043  RH  032%=      5-min Rain = 0
KMC5 261922Z 18019KT 22/05 A3015 RMK A01 T02190045  RH  032%=      5-min Rain = 0
KMC5 261923Z 18019KT 22/04 A3014 RMK A01 T02200041  RH  031%=      5-min Rain = 0
KMC5 261924Z 18019KT 22/04 A3015 RMK A01 T02190039  RH  031%=      5-min Rain = 0
KMC5 261925Z 19017KT 22/04 A3014 RMK A01 T02150040  RH  032%=      5-min Rain = 0
KMC5 261926Z 17019KT 22/05 A3014 RMK A01 T02160045  RH  033%=      5-min Rain = 0
KMC5 261927Z 16018KT 22/04 A3014 RMK A01 T02180041  RH  031%=      5-min Rain = 0
KMC5 261928Z 16019G24KT 22/05 A3014 RMK A01 T02190046  RH  032%=      5-min Rain = 0
KMC5 261929Z 16022G27KT 22/04 A3014 RMK A01 T02200039  RH  031%=      5-min Rain = 0
KMC5 261930Z 17023KT 22/04 A3014 RMK A01 T02180041  RH  031%=      5-min Rain = 0
KMC5 261931Z 17023KT 22/03 A3014 RMK A01 T02150031  RH  030%=      5-min Rain = 0
KMC5 261932Z 17022KT 21/03 A3014 RMK A01 T02120034  RH  031%=      5-min Rain = 0
KMC5 261933Z 18019G25KT 21/04 A3014 RMK A01 T02140040  RH  032%=      5-min Rain = 0
KMC5 261934Z 18023KT 22/03 A3014 RMK A01 T02160034  RH  030%=      5-min Rain = 0
KMC5 261935Z 18022KT 21/04 A3014 RMK A01 T02140036  RH  031%=      5-min Rain = 0
KMC5 261936Z 17020G25KT 21/04 A3014 RMK A01 T02140040  RH  032%=      5-min Rain = 0
KMC5 261937Z 16019KT 22/04 A3014 RMK A01 T02150037  RH  031%=      5-min Rain = 0
KMC5 261938Z 16019KT 21/04 A3014 RMK A01 T02140035  RH  031%=      5-min Rain = 0
KMC5 261939Z 16018KT 21/04 A3014 RMK A01 T02140040  RH  032%=      5-min Rain = 0
KMC5 261940Z 17022KT 22/04 A3014 RMK A01 T02190039  RH  031%=      5-min Rain = 0
KMC5 261941Z 17019KT 22/04 A3014 RMK A01 T02190035  RH  030%=      5-min Rain = 0
KMC5 261942Z 17020KT 22/04 A3014 RMK A01 T02160035  RH  030%=      5-min Rain = 0
KMC5 261943Z 18020KT 22/04 A3013 RMK A01 T02150042  RH  032%=      5-min Rain = 0
KMC5 261944Z 19021KT 22/04 A3013 RMK A01 T02180041  RH  031%=      5-min Rain = 0
KMC5 261945Z 19018KT 22/04 A3013 RMK A01 T02160040  RH  032%=      5-min Rain = 0
KMC5 261946Z 17023G28KT 22/04 A3013 RMK A01 T02160043  RH  032%=      5-min Rain = 0
KMC5 261947Z 18026KT 22/04 A3013 RMK A01 T02170041  RH  032%=      5-min Rain = 0
KMC5 261948Z 17022KT 22/04 A3013 RMK A01 T02150042  RH  032%=      5-min Rain = 0
KMC5 261949Z 17019KT 22/04 A3013 RMK A01 T02150041  RH  032%=      5-min Rain = 0
KMC5 261950Z 17020G27KT 21/04 A3013 RMK A01 T02140041  RH  032%=      5-min Rain = 0
KMC5 261951Z 15021KT 21/04 A3013 RMK A01 T02140040  RH  032%=      5-min Rain = 0
KMC5 261952Z 16019KT 21/04 A3013 RMK A01 T02140038  RH  031%=      5-min Rain = 0
KMC5 261953Z 17020G25KT 21/05 A3013 RMK A01 T02140045  RH  033%=      5-min Rain = 0
KMC5 261954Z 18017KT 22/05 A3013 RMK A01 T02190050  RH  033%=      5-min Rain = 0
KMC5 261955Z 18022G29KT 22/05 A3012 RMK A01 T02230051  RH  033%=      5-min Rain = 0
KMC5 261956Z 18024KT 22/04 A3012 RMK A01 T02210040  RH  031%=      5-min Rain = 0
KMC5 261957Z 17021KT 22/04 A3012 RMK A01 T02150041  RH  032%=      5-min Rain = 0
KMC5 261958Z 18021KT 21/04 A3012 RMK A01 T02140043  RH  032%=      5-min Rain = 0
KMC5 261959Z 18023G28KT 22/04 A3012 RMK A01 T02160042  RH  032%=      5-min Rain = 0
KMC5 262000Z 17024KT 22/04 A3012 RMK A01 T02170040  RH  031%=      5-min Rain = 0
KMC5 262001Z 16021G26KT 21/04 A3012 RMK A01 T02140036  RH  031%=      5-min Rain = 0
KMC5 262002Z 16019G25KT 21/04 A3012 RMK A01 T02130039  RH  032%=      5-min Rain = 0
KMC5 262003Z 15025KT 21/04 A3012 RMK A01 T02140035  RH  031%=      5-min Rain = 0
KMC5 262004Z 17022G27KT 21/04 A3012 RMK A01 T02120038  RH  032%=      5-min Rain = 0
KMC5 262005Z 17022KT 21/04 A3012 RMK A01 T02130038  RH  032%=      5-min Rain = 0
KMC5 262006Z 18019KT 21/04 A3012 RMK A01 T02140040  RH  032%=      5-min Rain = 0
KMC5 262007Z 18019G24KT 22/04 A3012 RMK A01 T02150043  RH  032%=      5-min Rain = 0
KMC5 262008Z 19019KT 22/04 A3011 RMK A01 T02180042  RH  032%=      5-min Rain = 0
KMC5 262009Z 18018G23KT 22/04 A3011 RMK A01 T02180042  RH  032%=      5-min Rain = 0
KMC5 262010Z 17018KT 22/05 A3012 RMK A01 T02190045  RH  032%=      5-min Rain = 0
KMC5 262011Z 16021KT 22/05 A3012 RMK A01 T02200045  RH  032%=      5-min Rain = 0
KMC5 262012Z 17021KT 22/04 A3011 RMK A01 T02200038  RH  030%=      5-min Rain = 0
KMC5 262013Z 17020KT 22/04 A3011 RMK A01 T02180040  RH  031%=      5-min Rain = 0
KMC5 262014Z 18018KT 22/04 A3011 RMK A01 T02180043  RH  032%=      5-min Rain = 0
KMC5 262015Z 18023KT 22/05 A3011 RMK A01 T02210045  RH  032%=      5-min Rain = 0
KMC5 262016Z 18023KT 22/04 A3011 RMK A01 T02190039  RH  031%=      5-min Rain = 0
KMC5 262017Z 17021KT 22/04 A3011 RMK A01 T02150042  RH  032%=      5-min Rain = 0
KMC5 262018Z 17022KT 22/04 A3011 RMK A01 T02160043  RH  032%=      5-min Rain = 0
KMC5 262019Z 17019KT 22/04 A3011 RMK A01 T02170043  RH  032%=      5-min Rain = 0
KMC5 262020Z 17018KT 22/05 A3011 RMK A01 T02190047  RH  032%=      5-min Rain = 0
KMC5 262021Z 17021KT 22/05 A3011 RMK A01 T02210045  RH  032%=      5-min Rain = 0
KMC5 262022Z 18025KT 22/04 A3011 RMK A01 T02210043  RH  031%=      5-min Rain = 0
KMC5 262023Z 17018KT 22/04 A3011 RMK A01 T02170042  RH  032%=      5-min Rain = 0
KMC5 262024Z 18022G27KT 22/04 A301 RMK A01 T02170044  RH  032%=      5-min Rain = 0
KMC5 262025Z 17022KT 22/04 A301 RMK A01 T02190043  RH  032%=      5-min Rain = 0
KMC5 262026Z 17020G25KT 22/05 A301 RMK A01 T02180045  RH  032%=      5-min Rain = 0
KMC5 262027Z 16021G26KT 22/04 A301 RMK A01 T02190042  RH  031%=      5-min Rain = 0
KMC5 262028Z 18023KT 22/04 A301 RMK A01 T02190044  RH  032%=      5-min Rain = 0
KMC5 262029Z 18025KT 22/04 A301 RMK A01 T02200042  RH  031%=      5-min Rain = 0
KMC5 262030Z 18022KT 22/04 A301 RMK A01 T02190041  RH  031%=      5-min Rain = 0
KMC5 262031Z 18023KT 22/04 A301 RMK A01 T02180041  RH  031%=      5-min Rain = 0
KMC5 262032Z 17022KT 22/04 A301 RMK A01 T02160040  RH  031%=      5-min Rain = 0
KMC5 262033Z 16025KT 22/04 A301 RMK A01 T02170038  RH  031%=      5-min Rain = 0
KMC5 262034Z 16025KT 22/04 A3009 RMK A01 T02160037  RH  031%=      5-min Rain = 0
KMC5 262035Z 16024G29KT 22/04 A3009 RMK A01 T02160039  RH  031%=      5-min Rain = 0
KMC5 262036Z 16022KT 22/04 A3009 RMK A01 T02170041  RH  031%=      5-min Rain = 0
KMC5 262037Z 16022G28KT 22/04 A3009 RMK A01 T02190040  RH  031%=      5-min Rain = 0
KMC5 262038Z 15024G29KT 22/04 A3009 RMK A01 T02190040  RH  031%=      5-min Rain = 0
KMC5 262039Z 16022G27KT 22/04 A3009 RMK A01 T02190040  RH  031%=      5-min Rain = 0
KMC5 262040Z 17026KT 22/04 A3009 RMK A01 T02180039  RH  031%=      5-min Rain = 0
KMC5 262041Z 17022G27KT 22/04 A3009 RMK A01 T02180042  RH  032%=      5-min Rain = 0
KMC5 262042Z 17022G27KT 22/04 A3009 RMK A01 T02190040  RH  031%=      5-min Rain = 0
KMC5 262043Z 18020KT 22/04 A3009 RMK A01 T02170040  RH  031%=      5-min Rain = 0
KMC5 262044Z 17019G24KT 22/04 A3009 RMK A01 T02160041  RH  032%=      5-min Rain = 0
KMC5 262045Z 17023G28KT 22/04 A3009 RMK A01 T02190044  RH  032%=      5-min Rain = 0
KMC5 262046Z 16023KT 22/04 A3009 RMK A01 T02200040  RH  031%=      5-min Rain = 0
KMC5 262047Z 17021KT 22/04 A3009 RMK A01 T02180038  RH  031%=      5-min Rain = 0
KMC5 262048Z 17020KT 22/04 A3008 RMK A01 T02180043  RH  032%=      5-min Rain = 0
KMC5 262049Z 16020G25KT 22/04 A3008 RMK A01 T02200040  RH  031%=      5-min Rain = 0
KMC5 262050Z 17019KT 22/04 A3008 RMK A01 T02200042  RH  031%=      5-min Rain = 0
KMC5 262051Z 18022KT 22/04 A3008 RMK A01 T02200044  RH  032%=      5-min Rain = 0
KMC5 262052Z 17020G25KT 22/04 A3008 RMK A01 T02210043  RH  031%=      5-min Rain = 0
KMC5 262053Z 17019G25KT 22/04 A3008 RMK A01 T02200044  RH  032%=      5-min Rain = 0
KMC5 262054Z 16022KT 22/04 A3008 RMK A01 T02200042  RH  031%=      5-min Rain = 0
KMC5 262055Z 16021G26KT 22/04 A3008 RMK A01 T02200043  RH  032%=      5-min Rain = 0
KMC5 262056Z 16020G25KT 22/05 A3008 RMK A01 T02220046  RH  032%=      5-min Rain = 0
KMC5 262057Z 16024KT 22/04 A3008 RMK A01 T02230040  RH  030%=      5-min Rain = 0
KMC5 262058Z 16025KT 22/04 A3007 RMK A01 T02210042  RH  031%=      5-min Rain = 0
KMC5 262059Z 16024KT 22/04 A3007 RMK A01 T02190039  RH  031%=      5-min Rain = 0
KMC5 262100Z 16022KT 22/04 A3007 RMK A01 T02180042  RH  032%=      5-min Rain = 0
KMC5 262101Z 17020G26KT 22/04 A3007 RMK A01 T02180041  RH  031%=      5-min Rain = 0
KMC5 262102Z 18022KT 22/04 A3007 RMK A01 T02200044  RH  032%=      5-min Rain = 0
KMC5 262103Z 18019KT 22/04 A3007 RMK A01 T02200043  RH  032%=      5-min Rain = 0
KMC5 262104Z 17022KT 22/04 A3007 RMK A01 T02200044  RH  032%=      5-min Rain = 0
KMC5 262105Z 17025G30KT 22/04 A3007 RMK A01 T02220044  RH  031%=      5-min Rain = 0
KMC5 262106Z 17024KT 22/04 A3007 RMK A01 T02200042  RH  031%=      5-min Rain = 0
KMC5 262107Z 17021KT 22/04 A3007 RMK A01 T02180043  RH  032%=      5-min Rain = 0
KMC5 262108Z 17023KT 22/04 A3007 RMK A01 T02170043  RH  032%=      5-min Rain = 0
KMC5 262109Z 16021G26KT 22/04 A3007 RMK A01 T02170044  RH  032%=      5-min Rain = 0
KMC5 262110Z 16024G29KT 22/04 A3007 RMK A01 T02190044  RH  032%=      5-min Rain = 0
KMC5 262111Z 16023KT 22/04 A3006 RMK A01 T02190044  RH  032%=      5-min Rain = 0
KMC5 262112Z 17021KT 22/04 A3006 RMK A01 T02200044  RH  032%=      5-min Rain = 0
KMC5 262113Z 18019KT 22/05 A3006 RMK A01 T02210047  RH  032%=      5-min Rain = 0
KMC5 262114Z 17022G27KT 22/05 A3006 RMK A01 T02220047  RH  032%=      5-min Rain = 0
KMC5 262115Z 18021KT 22/05 A3006 RMK A01 T02230048  RH  032%=      5-min Rain = 0
KMC5 262116Z 16020KT 22/05 A3006 RMK A01 T02230045  RH  031%=      5-min Rain = 0
KMC5 262117Z 17022KT 22/05 A3006 RMK A01 T02210047  RH  032%=      5-min Rain = 0
KMC5 262118Z 18021KT 22/04 A3006 RMK A01 T02220044  RH  031%=      5-min Rain = 0
KMC5 262119Z 17018KT 22/05 A3006 RMK A01 T02210048  RH  032%=      5-min Rain = 0
KMC5 262120Z 16021G26KT 22/05 A3006 RMK A01 T02240046  RH  031%=      5-min Rain = 0
KMC5 262121Z 18022KT 22/04 A3006 RMK A01 T02240042  RH  030%=      5-min Rain = 0
KMC5 262122Z 17018KT 22/04 A3006 RMK A01 T02200042  RH  031%=      5-min Rain = 0
KMC5 262123Z 16024KT 22/04 A3006 RMK A01 T02200040  RH  031%=      5-min Rain = 0
KMC5 262124Z 16025KT 22/04 A3005 RMK A01 T02190039  RH  031%=      5-min Rain = 0
KMC5 262125Z 17026G32KT 22/04 A3005 RMK A01 T02180042  RH  032%=      5-min Rain = 0
KMC5 262126Z 17025KT 22/04 A3005 RMK A01 T02190042  RH  031%=      5-min Rain = 0
KMC5 262127Z 18023KT 22/04 A3005 RMK A01 T02190044  RH  032%=      5-min Rain = 0
KMC5 262128Z 18021KT 22/05 A3005 RMK A01 T02200045  RH  032%=      5-min Rain = 0
KMC5 262129Z 18023KT 22/04 A3005 RMK A01 T02190044  RH  032%=      5-min Rain = 0
KMC5 262130Z 18018G24KT 22/05 A3005 RMK A01 T02200047  RH  032%=      5-min Rain = 0
KMC5 262131Z 17023G31KT 22/05 A3005 RMK A01 T02210047  RH  032%=      5-min Rain = 0
KMC5 262132Z 17021G27KT 22/05 A3005 RMK A01 T02230054  RH  033%=      5-min Rain = 0
KMC5 262133Z 17019KT 23/05 A3005 RMK A01 T02250052  RH  032%=      5-min Rain = 0
KMC5 262134Z 17022G27KT 23/05 A3005 RMK A01 T02250050  RH  032%=      5-min Rain = 0
KMC5 262135Z 17022KT 22/05 A3005 RMK A01 T02230045  RH  031%=      5-min Rain = 0
KMC5 262136Z 17019G25KT 22/04 A3005 RMK A01 T02210044  RH  032%=      5-min Rain = 0
KMC5 262137Z 17020G25KT 22/04 A3004 RMK A01 T02200044  RH  032%=      5-min Rain = 0
KMC5 262138Z 17025KT 22/04 A3004 RMK A01 T02210042  RH  031%=      5-min Rain = 0
KMC5 262139Z 16023KT 22/04 A3004 RMK A01 T02190042  RH  031%=      5-min Rain = 0
KMC5 262140Z 17021KT 22/04 A3004 RMK A01 T02190041  RH  031%=      5-min Rain = 0
KMC5 262141Z 17022G27KT 22/04 A3004 RMK A01 T02170041  RH  032%=      5-min Rain = 0
KMC5 262142Z 17025G30KT 22/04 A3004 RMK A01 T02180043  RH  032%=      5-min Rain = 0
KMC5 262143Z 18025KT 22/04 A3004 RMK A01 T02190042  RH  032%=      5-min Rain = 0
KMC5 262144Z 17025G30KT 22/04 A3004 RMK A01 T02170042  RH  032%=      5-min Rain = 0
KMC5 262145Z 17021KT 22/04 A3004 RMK A01 T02160042  RH  032%=      5-min Rain = 0
KMC5 262146Z 17020KT 22/04 A3004 RMK A01 T02160044  RH  032%=      5-min Rain = 0
KMC5 262147Z 18024KT 22/05 A3003 RMK A01 T02190047  RH  033%=      5-min Rain = 0
KMC5 262148Z 18023G28KT 22/05 A3003 RMK A01 T02200046  RH  032%=      5-min Rain = 0
KMC5 262149Z 18021KT 22/04 A3003 RMK A01 T02200044  RH  032%=      5-min Rain = 0
KMC5 262150Z 18021KT 22/05 A3003 RMK A01 T02190047  RH  032%=      5-min Rain = 0
KMC5 262151Z 18022G28KT 22/05 A3003 RMK A01 T02210048  RH  032%=      5-min Rain = 0
KMC5 262152Z 19022KT 22/05 A3003 RMK A01 T02230048  RH  032%=      5-min Rain = 0
KMC5 262153Z 18026KT 22/05 A3003 RMK A01 T02220045  RH  032%=      5-min Rain = 0
KMC5 262154Z 18021KT 22/05 A3003 RMK A01 T02190047  RH  032%=      5-min Rain = 0
KMC5 262155Z 17022G27KT 22/04 A3003 RMK A01 T02190044  RH  032%=      5-min Rain = 0
KMC5 262156Z 17023KT 22/04 A3003 RMK A01 T02180043  RH  032%=      5-min Rain = 0
KMC5 262157Z 16024KT 22/04 A3003 RMK A01 T02180044  RH  032%=      5-min Rain = 0
KMC5 262158Z 17023G28KT 22/04 A3003 RMK A01 T02170039  RH  031%=      5-min Rain = 0
KMC5 262159Z 16024KT 22/05 A3003 RMK A01 T02160045  RH  033%=      5-min Rain = 0
KMC5 262200Z 17022KT 22/05 A3003 RMK A01 T02180047  RH  033%=      5-min Rain = 0
KMC5 262201Z 17023G28KT 22/05 A3003 RMK A01 T02180047  RH  033%=      5-min Rain = 0
KMC5 262202Z 17022KT 22/05 A3003 RMK A01 T02190048  RH  033%=      5-min Rain = 0
KMC5 262203Z 18022G29KT 22/05 A3003 RMK A01 T02200052  RH  033%=      5-min Rain = 0
KMC5 262204Z 19021KT 22/05 A3003 RMK A01 T02220049  RH  032%=      5-min Rain = 0
KMC5 262205Z 18020KT 22/05 A3003 RMK A01 T02210048  RH  032%=      5-min Rain = 0
KMC5 262206Z 18020KT 22/05 A3003 RMK A01 T02200049  RH  033%=      5-min Rain = 0
KMC5 262207Z 18020KT 22/05 A3002 RMK A01 T02200053  RH  034%=      5-min Rain = 0
KMC5 262208Z 18022KT 22/05 A3002 RMK A01 T02220051  RH  033%=      5-min Rain = 0
KMC5 262209Z 19020KT 22/05 A3002 RMK A01 T02210052  RH  033%=      5-min Rain = 0
KMC5 262210Z 18022KT 22/05 A3002 RMK A01 T02210051  RH  033%=      5-min Rain = 0
KMC5 262211Z 18023KT 22/05 A3002 RMK A01 T02210050  RH  033%=      5-min Rain = 0
KMC5 262212Z 17018KT 22/05 A3002 RMK A01 T02200049  RH  033%=      5-min Rain = 0
KMC5 262213Z 17023KT 22/05 A3002 RMK A01 T02200048  RH  033%=      5-min Rain = 0
KMC5 262214Z 18022KT 22/05 A3002 RMK A01 T02180048  RH  033%=      5-min Rain = 0
KMC5 262215Z 18022KT 22/05 A3002 RMK A01 T02180050  RH  033%=      5-min Rain = 0
KMC5 262216Z 18020G26KT 22/05 A3002 RMK A01 T02190051  RH  033%=      5-min Rain = 0
KMC5 262217Z 17023KT 22/05 A3002 RMK A01 T02200051  RH  033%=      5-min Rain = 0
KMC5 262218Z 16020G25KT 22/05 A3002 RMK A01 T02190051  RH  033%=      5-min Rain = 0
KMC5 262219Z 17024KT 22/05 A3002 RMK A01 T02190051  RH  033%=      5-min Rain = 0
KMC5 262220Z 17023KT 22/05 A3002 RMK A01 T02190052  RH  034%=      5-min Rain = 0
KMC5 262221Z 17020KT 22/05 A3002 RMK A01 T02190052  RH  034%=      5-min Rain = 0
KMC5 262222Z 17017KT 22/06 A3002 RMK A01 T02190055  RH  034%=      5-min Rain = 0
KMC5 262223Z 18021KT 22/05 A3002 RMK A01 T02220054  RH  034%=      5-min Rain = 0
KMC5 262224Z 17021G28KT 22/05 A3002 RMK A01 T02200052  RH  033%=      5-min Rain = 0
KMC5 262225Z 16022KT 22/05 A3002 RMK A01 T02190053  RH  034%=      5-min Rain = 0
KMC5 262226Z 16024KT 22/05 A3002 RMK A01 T02180051  RH  034%=      5-min Rain = 0
KMC5 262227Z 16023KT 22/05 A3001 RMK A01 T02170052  RH  034%=      5-min Rain = 0
KMC5 262228Z 16022KT 22/05 A3001 RMK A01 T02170052  RH  034%=      5-min Rain = 0
KMC5 262229Z 17020KT 22/05 A3001 RMK A01 T02170052  RH  034%=      5-min Rain = 0
KMC5 262230Z 17020G25KT 22/06 A3001 RMK A01 T02170055  RH  035%=      5-min Rain = 0
KMC5 262231Z 18023KT 22/06 A3001 RMK A01 T02190057  RH  035%=      5-min Rain = 0
KMC5 262232Z 19022KT 22/06 A3001 RMK A01 T02190057  RH  035%=      5-min Rain = 0
KMC5 262233Z 18021KT 22/06 A3001 RMK A01 T02180057  RH  035%=      5-min Rain = 0
KMC5 262234Z 18018KT 22/06 A3001 RMK A01 T02190060  RH  036%=      5-min Rain = 0
KMC5 262235Z 18017KT 22/06 A3001 RMK A01 T02220061  RH  035%=      5-min Rain = 0
KMC5 262236Z 17020KT 22/06 A3001 RMK A01 T02230061  RH  035%=      5-min Rain = 0
KMC5 262237Z 18022G27KT 22/06 A3001 RMK A01 T02230061  RH  035%=      5-min Rain = 0
KMC5 262238Z 19024KT 22/06 A3001 RMK A01 T02220061  RH  035%=      5-min Rain = 0
KMC5 262239Z 18022KT 22/06 A3001 RMK A01 T02190059  RH  035%=      5-min Rain = 0
KMC5 262240Z 18018G23KT 22/06 A3001 RMK A01 T02180056  RH  035%=      5-min Rain = 0
KMC5 262241Z 17019KT 22/06 A3001 RMK A01 T02180058  RH  036%=      5-min Rain = 0
KMC5 262242Z 17022KT 22/06 A3001 RMK A01 T02190057  RH  035%=      5-min Rain = 0
KMC5 262243Z 17021G26KT 22/05 A3001 RMK A01 T02180053  RH  034%=      5-min Rain = 0
KMC5 262244Z 16016KT 22/06 A3001 RMK A01 T02170055  RH  035%=      5-min Rain = 0
KMC5 262245Z 16018KT 22/06 A3001 RMK A01 T02180057  RH  035%=      5-min Rain = 0
KMC5 262246Z 17019KT 22/06 A3001 RMK A01 T02190056  RH  035%=      5-min Rain = 0
KMC5 262247Z 18018G23KT 22/06 A3001 RMK A01 T02190059  RH  035%=      5-min Rain = 0
KMC5 262248Z 18020G26KT 22/06 A3001 RMK A01 T02200060  RH  035%=      5-min Rain = 0
KMC5 262249Z 18021G26KT 22/06 A3001 RMK A01 T02200060  RH  035%=      5-min Rain = 0
KMC5 262250Z 19021KT 22/06 A3001 RMK A01 T02180058  RH  035%=      5-min Rain = 0
KMC5 262251Z 18017KT 22/06 A3001 RMK A01 T02170060  RH  036%=      5-min Rain = 0
KMC5 262252Z 16020KT 22/06 A3001 RMK A01 T02190061  RH  036%=      5-min Rain = 0
KMC5 262253Z 16022G28KT 22/06 A3001 RMK A01 T02190057  RH  035%=      5-min Rain = 0
KMC5 262254Z 16021KT 22/05 A3001 RMK A01 T02170053  RH  034%=      5-min Rain = 0
KMC5 262255Z 18020KT 22/06 A3001 RMK A01 T02160057  RH  036%=      5-min Rain = 0
KMC5 262256Z 18019KT 22/06 A3001 RMK A01 T02160056  RH  035%=      5-min Rain = 0
KMC5 262257Z 18016KT 22/06 A3001 RMK A01 T02160059  RH  036%=      5-min Rain = 0
KMC5 262258Z 17017KT 22/06 A3001 RMK A01 T02170062  RH  037%=      5-min Rain = 0
KMC5 262259Z 16020KT 22/06 A3001 RMK A01 T02190059  RH  036%=      5-min Rain = 0
KMC5 262300Z 17021KT 22/06 A3001 RMK A01 T02180060  RH  036%=      5-min Rain = 0
KMC5 262301Z 18020KT 22/06 A3001 RMK A01 T02170061  RH  036%=      5-min Rain = 0
KMC5 262302Z 18021KT 22/06 A3001 RMK A01 T02170061  RH  036%=      5-min Rain = 0
KMC5 262303Z 19022KT 22/06 A3001 RMK A01 T02160062  RH  037%=      5-min Rain = 0
KMC5 262304Z 19024KT 22/06 A30 RMK A01 T02160061  RH  037%=      5-min Rain = 0
KMC5 262305Z 19019KT 22/06 A3001 RMK A01 T02150063  RH  037%=      5-min Rain = 0
KMC5 262306Z 18019G25KT 22/06 A3001 RMK A01 T02160064  RH  037%=      5-min Rain = 0
KMC5 262307Z 17021KT 22/06 A3001 RMK A01 T02170060  RH  036%=      5-min Rain = 0
KMC5 262308Z 17021KT 22/06 A3001 RMK A01 T02160058  RH  036%=      5-min Rain = 0
KMC5 262309Z 17022KT 22/06 A3001 RMK A01 T02150059  RH  036%=      5-min Rain = 0
KMC5 262310Z 16020KT 21/06 A3001 RMK A01 T02140058  RH  036%=      5-min Rain = 0
KMC5 262311Z 17021KT 21/06 A3001 RMK A01 T02130060  RH  037%=      5-min Rain = 0
KMC5 262312Z 18021KT 21/06 A3001 RMK A01 T02130061  RH  037%=      5-min Rain = 0
KMC5 262313Z 17022KT 21/06 A3001 RMK A01 T02140061  RH  037%=      5-min Rain = 0
KMC5 262314Z 17021KT 21/06 A30 RMK A01 T02140062  RH  037%=      5-min Rain = 0
KMC5 262315Z 18021KT 21/06 A30 RMK A01 T02130061  RH  037%=      5-min Rain = 0
KMC5 262316Z 17019KT 21/06 A30 RMK A01 T02130062  RH  037%=      5-min Rain = 0
KMC5 262317Z 17019KT 21/06 A30 RMK A01 T02130060  RH  037%=      5-min Rain = 0
KMC5 262318Z 17016G22KT 21/06 A3001 RMK A01 T02130062  RH  037%=      5-min Rain = 0
KMC5 262319Z 17017KT 21/06 A30 RMK A01 T02140064  RH  038%=      5-min Rain = 0
KMC5 262320Z 17021KT 22/06 A30 RMK A01 T02160062  RH  037%=      5-min Rain = 0
KMC5 262321Z 17020G25KT 21/06 A3001 RMK A01 T02140061  RH  037%=      5-min Rain = 0
KMC5 262322Z 17021KT 21/06 A3001 RMK A01 T02130061  RH  037%=      5-min Rain = 0
KMC5 262323Z 17021KT 21/06 A30 RMK A01 T02120061  RH  037%=      5-min Rain = 0
KMC5 262324Z 16019G27KT 21/06 A30 RMK A01 T02120064  RH  038%=      5-min Rain = 0
KMC5 262325Z 17022KT 21/06 A30 RMK A01 T02130061  RH  037%=      5-min Rain = 0
KMC5 262326Z 17021KT 21/06 A30 RMK A01 T02120063  RH  038%=      5-min Rain = 0
KMC5 262327Z 18020KT 21/06 A30 RMK A01 T02130064  RH  038%=      5-min Rain = 0
KMC5 262328Z 16018G23KT 21/06 A30 RMK A01 T02130064  RH  038%=      5-min Rain = 0
KMC5 262329Z 17020KT 21/06 A30 RMK A01 T02130064  RH  038%=      5-min Rain = 0
KMC5 262330Z 17021KT 21/06 A30 RMK A01 T02120062  RH  038%=      5-min Rain = 0
KMC5 262331Z 17021KT 21/06 A30 RMK A01 T02110063  RH  038%=      5-min Rain = 0
KMC5 262332Z 17018KT 21/06 A30 RMK A01 T02110064  RH  038%=      5-min Rain = 0
KMC5 262333Z 17020KT 21/07 A30 RMK A01 T02120065  RH  038%=      5-min Rain = 0
KMC5 262334Z 18019KT 21/07 A30 RMK A01 T02120066  RH  039%=      5-min Rain = 0
KMC5 262335Z 18020KT 21/07 A30 RMK A01 T02120066  RH  039%=      5-min Rain = 0
KMC5 262336Z 17018KT 21/07 A30 RMK A01 T02120067  RH  039%=      5-min Rain = 0
KMC5 262337Z 17019KT 21/07 A30 RMK A01 T02130068  RH  039%=      5-min Rain = 0
KMC5 262338Z 18019G24KT 21/07 A30 RMK A01 T02130066  RH  038%=      5-min Rain = 0
KMC5 262339Z 16020KT 21/07 A30 RMK A01 T02120066  RH  039%=      5-min Rain = 0
KMC5 262340Z 16021KT 21/07 A30 RMK A01 T02120065  RH  039%=      5-min Rain = 0
KMC5 262341Z 16020KT 21/07 A30 RMK A01 T02110065  RH  039%=      5-min Rain = 0
KMC5 262342Z 16020KT 21/07 A30 RMK A01 T02110067  RH  039%=      5-min Rain = 0
KMC5 262343Z 17019KT 21/07 A30 RMK A01 T02110068  RH  039%=      5-min Rain = 0
KMC5 262344Z 18015KT 21/07 A30 RMK A01 T02120070  RH  040%=      5-min Rain = 0
KMC5 262345Z 16018KT 21/07 A2999 RMK A01 T02130068  RH  039%=      5-min Rain = 0
KMC5 262346Z 17020KT 21/07 A2999 RMK A01 T02130068  RH  039%=      5-min Rain = 0
KMC5 262347Z 17021KT 21/07 A2999 RMK A01 T02120068  RH  039%=      5-min Rain = 0
KMC5 262348Z 17020KT 21/07 A2999 RMK A01 T02100067  RH  039%=      5-min Rain = 0
KMC5 262349Z 18019KT 21/07 A2999 RMK A01 T02080067  RH  040%=      5-min Rain = 0
KMC5 262350Z 17020KT 21/07 A2999 RMK A01 T02060066  RH  040%=      5-min Rain = 0
KMC5 262351Z 17021G26KT 21/06 A2999 RMK A01 T02050064  RH  040%=      5-min Rain = 0
KMC5 262352Z 17021KT 20/06 A2999 RMK A01 T02040064  RH  040%=      5-min Rain = 0
KMC5 262353Z 16021KT 20/06 A2999 RMK A01 T02020063  RH  040%=      5-min Rain = 0
KMC5 262354Z 17020KT 20/06 A2999 RMK A01 T02010063  RH  040%=      5-min Rain = 0
KMC5 262355Z 17020KT 20/06 A2999 RMK A01 T02010064  RH  041%=      5-min Rain = 0
KMC5 262356Z 17018KT 20/06 A2999 RMK A01 T02010064  RH  041%=      5-min Rain = 0
KMC5 262357Z 17018KT 20/06 A2999 RMK A01 T02000064  RH  041%=      5-min Rain = 0
KMC5 262358Z 17017KT 20/07 A2999 RMK A01 T02000065  RH  041%=      5-min Rain = 0
KMC5 262359Z 17015KT 20/06 A2999 RMK A01 T01990064  RH  041%=      5-min Rain = 0
KMC5 270000Z 17015KT 20/07 A2999 RMK A01 T01990066  RH  042%=      5-min Rain = 0
KMC5 270001Z 17019KT 20/07 A2999 RMK A01 T01990066  RH  042%=      5-min Rain = 0
KMC5 270002Z 17021KT 20/07 A2999 RMK A01 T01990065  RH  042%=      5-min Rain = 0
KMC5 270003Z 17019KT 20/07 A2999 RMK A01 T01990066  RH  042%=      5-min Rain = 0
KMC5 270004Z 17017KT 20/07 A2999 RMK A01 T01990067  RH  042%=      5-min Rain = 0
KMC5 270005Z 17020KT 20/07 A2999 RMK A01 T01990066  RH  042%=      5-min Rain = 0
KMC5 270006Z 17018KT 20/07 A2999 RMK A01 T01980065  RH  042%=      5-min Rain = 0
KMC5 270007Z 17020G25KT 20/07 A2999 RMK A01 T01990066  RH  042%=      5-min Rain = 0
KMC5 270008Z 17019KT 20/06 A2998 RMK A01 T01980064  RH  042%=      5-min Rain = 0
KMC5 270009Z 17019KT 20/06 A2998 RMK A01 T01980064  RH  042%=      5-min Rain = 0
KMC5 270010Z 17019KT 20/07 A2998 RMK A01 T01980065  RH  042%=      5-min Rain = 0
KMC5 270011Z 17018G25KT 20/07 A2998 RMK A01 T01980065  RH  042%=      5-min Rain = 0
KMC5 270012Z 17016KT 20/07 A2998 RMK A01 T01980066  RH  042%=      5-min Rain = 0
KMC5 270013Z 17017G22KT 20/07 A2998 RMK A01 T01970067  RH  043%=      5-min Rain = 0
KMC5 270014Z 17020KT 20/07 A2998 RMK A01 T01970065  RH  042%=      5-min Rain = 0
KMC5 270015Z 17016KT 20/07 A2998 RMK A01 T01970066  RH  042%=      5-min Rain = 0
KMC5 270016Z 17017KT 20/07 A2998 RMK A01 T01970067  RH  043%=      5-min Rain = 0
KMC5 270017Z 17016KT 20/07 A2998 RMK A01 T01970066  RH  043%=      5-min Rain = 0
KMC5 270018Z 18016KT 20/07 A2998 RMK A01 T01970067  RH  043%=      5-min Rain = 0
KMC5 270019Z 17017KT 20/07 A2998 RMK A01 T01960067  RH  043%=      5-min Rain = 0
KMC5 270020Z 17018KT 20/07 A2998 RMK A01 T01960066  RH  043%=      5-min Rain = 0
KMC5 270021Z 17016KT 20/07 A2998 RMK A01 T01960066  RH  043%=      5-min Rain = 0
KMC5 270022Z 17014KT 20/07 A2998 RMK A01 T01960068  RH  043%=      5-min Rain = 0
KMC5 270023Z 18016KT 20/07 A2998 RMK A01 T01950067  RH  043%=      5-min Rain = 0
KMC5 270024Z 16017G22KT 20/07 A2998 RMK A01 T01950065  RH  043%=      5-min Rain = 0
KMC5 270025Z 17016KT 20/07 A2998 RMK A01 T01950065  RH  043%=      5-min Rain = 0
KMC5 270026Z 17017KT 19/06 A2998 RMK A01 T01940063  RH  042%=      5-min Rain = 0
KMC5 270027Z 17015KT 19/06 A2998 RMK A01 T01940063  RH  042%=      5-min Rain = 0
KMC5 270028Z 17015KT 19/06 A2998 RMK A01 T01930064  RH  043%=      5-min Rain = 0
KMC5 270029Z 17016KT 19/06 A2998 RMK A01 T01930064  RH  043%=      5-min Rain = 0
KMC5 270030Z 17015KT 19/06 A2998 RMK A01 T01930064  RH  043%=      5-min Rain = 0
KMC5 270031Z 17013KT 19/07 A2998 RMK A01 T01930066  RH  044%=      5-min Rain = 0
KMC5 270032Z 17014KT 19/07 A2998 RMK A01 T01920066  RH  044%=      5-min Rain = 0
KMC5 270033Z 17014KT 19/07 A2998 RMK A01 T01920066  RH  044%=      5-min Rain = 0
KMC5 270034Z 17013KT 19/07 A2998 RMK A01 T01920067  RH  044%=      5-min Rain = 0
KMC5 270035Z 17013KT 19/07 A2998 RMK A01 T01920068  RH  044%=      5-min Rain = 0
KMC5 270036Z 17013KT 19/07 A2997 RMK A01 T01910067  RH  044%=      5-min Rain = 0
KMC5 270037Z 17015KT 19/07 A2997 RMK A01 T01910068  RH  045%=      5-min Rain = 0
KMC5 270038Z 17018KT 19/07 A2997 RMK A01 T01900066  RH  044%=      5-min Rain = 0
KMC5 270039Z 17016KT 19/07 A2997 RMK A01 T01910065  RH  044%=      5-min Rain = 0
KMC5 270040Z 17016KT 19/07 A2997 RMK A01 T01910066  RH  044%=      5-min Rain = 0
KMC5 270041Z 17015KT 19/07 A2997 RMK A01 T01910067  RH  044%=      5-min Rain = 0
KMC5 270042Z 17016KT 19/07 A2997 RMK A01 T01910067  RH  044%=      5-min Rain = 0
KMC5 270043Z 17015KT 19/07 A2997 RMK A01 T01900067  RH  045%=      5-min Rain = 0
KMC5 270044Z 17015KT 19/07 A2996 RMK A01 T01900067  RH  045%=      5-min Rain = 0
KMC5 270045Z 17016KT 19/07 A2996 RMK A01 T01900067  RH  045%=      5-min Rain = 0
KMC5 270046Z 17014KT 19/07 A2996 RMK A01 T01900068  RH  045%=      5-min Rain = 0
KMC5 270047Z 18015KT 19/07 A2996 RMK A01 T01890068  RH  045%=      5-min Rain = 0
KMC5 270048Z 17015KT 19/07 A2996 RMK A01 T01890069  RH  045%=      5-min Rain = 0
KMC5 270049Z 17016KT 19/07 A2996 RMK A01 T01890069  RH  046%=      5-min Rain = 0
KMC5 270050Z 17016KT 19/07 A2996 RMK A01 T01890069  RH  045%=      5-min Rain = 0
KMC5 270051Z 17018KT 19/07 A2996 RMK A01 T01890069  RH  045%=      5-min Rain = 0
KMC5 270052Z 17016KT 19/07 A2995 RMK A01 T01890068  RH  045%=      5-min Rain = 0
KMC5 270053Z 17018KT 19/07 A2995 RMK A01 T01880068  RH  045%=      5-min Rain = 0
KMC5 270054Z 17017KT 19/07 A2995 RMK A01 T01880067  RH  045%=      5-min Rain = 0
KMC5 270055Z 17016KT 19/07 A2995 RMK A01 T01880068  RH  046%=      5-min Rain = 0
KMC5 270056Z 17017KT 19/07 A2995 RMK A01 T01870067  RH  046%=      5-min Rain = 0
KMC5 270057Z 17017KT 19/07 A2995 RMK A01 T01870066  RH  045%=      5-min Rain = 0
KMC5 270058Z 16017KT 19/07 A2995 RMK A01 T01870067  RH  045%=      5-min Rain = 0
KMC5 270059Z 16018G23KT 19/07 A2994 RMK A01 T01870067  RH  045%=      5-min Rain = 0
KMC5 270100Z 17017KT 19/07 A2994 RMK A01 T01860066  RH  045%=      5-min Rain = 0
KMC5 270101Z 17019KT 19/07 A2994 RMK A01 T01860067  RH  046%=      5-min Rain = 0
KMC5 270102Z 17015KT 19/07 A2994 RMK A01 T01860067  RH  046%=      5-min Rain = 0
KMC5 270103Z 16017KT 19/07 A2994 RMK A01 T01850067  RH  046%=      5-min Rain = 0
KMC5 270104Z 17020KT 19/07 A2994 RMK A01 T01850067  RH  046%=      5-min Rain = 0
KMC5 270105Z 17018KT 19/07 A2994 RMK A01 T01850066  RH  046%=      5-min Rain = 0
KMC5 270106Z 16017KT 19/07 A2994 RMK A01 T01850066  RH  046%=      5-min Rain = 0
KMC5 270107Z 16016KT 19/07 A2994 RMK A01 T01850067  RH  046%=      5-min Rain = 0
KMC5 270108Z 16015G20KT 19/07 A2994 RMK A01 T01850067  RH  046%=      5-min Rain = 0
KMC5 270109Z 16014KT 18/07 A2994 RMK A01 T01840068  RH  047%=      5-min Rain = 0
KMC5 270110Z 16017KT 18/07 A2994 RMK A01 T01830067  RH  047%=      5-min Rain = 0
KMC5 270111Z 16016KT 18/07 A2994 RMK A01 T01830067  RH  047%=      5-min Rain = 0
KMC5 270112Z 16013KT 18/07 A2994 RMK A01 T01820068  RH  047%=      5-min Rain = 0
KMC5 270113Z 16013KT 18/07 A2994 RMK A01 T01820068  RH  047%=      5-min Rain = 0
KMC5 270114Z 16013KT 18/07 A2994 RMK A01 T01810068  RH  047%=      5-min Rain = 0
KMC5 270115Z 16012KT 18/07 A2994 RMK A01 T01800068  RH  048%=      5-min Rain = 0
KMC5 270116Z 16013KT 18/07 A2994 RMK A01 T01790068  RH  048%=      5-min Rain = 0
KMC5 270117Z 16013G18KT 18/07 A2994 RMK A01 T01790067  RH  048%=      5-min Rain = 0
KMC5 270118Z 17013KT 18/07 A2994 RMK A01 T01780068  RH  048%=      5-min Rain = 0
KMC5 270119Z 17013KT 18/07 A2994 RMK A01 T01780067  RH  048%=      5-min Rain = 0
KMC5 270120Z 17013KT 18/07 A2994 RMK A01 T01790068  RH  048%=      5-min Rain = 0
KMC5 270121Z 17015KT 18/07 A2994 RMK A01 T01780068  RH  048%=      5-min Rain = 0
KMC5 270122Z 17015KT 18/07 A2994 RMK A01 T01780069  RH  049%=      5-min Rain = 0
KMC5 270123Z 17015KT 18/07 A2994 RMK A01 T01780069  RH  049%=      5-min Rain = 0
KMC5 270124Z 17014KT 18/07 A2994 RMK A01 T01780068  RH  049%=      5-min Rain = 0
KMC5 270125Z 17014KT 18/07 A2994 RMK A01 T01780069  RH  049%=      5-min Rain = 0
KMC5 270126Z 17014KT 18/07 A2994 RMK A01 T01770068  RH  049%=      5-min Rain = 0
KMC5 270127Z 17016KT 18/07 A2995 RMK A01 T01770068  RH  049%=      5-min Rain = 0
KMC5 270128Z 17015KT 18/07 A2995 RMK A01 T01770068  RH  049%=      5-min Rain = 0
KMC5 270129Z 17015KT 18/07 A2995 RMK A01 T01780068  RH  048%=      5-min Rain = 0
KMC5 270130Z 17016KT 18/07 A2995 RMK A01 T01780067  RH  048%=      5-min Rain = 0
KMC5 270131Z 17014KT 18/07 A2995 RMK A01 T01790066  RH  048%=      5-min Rain = 0
KMC5 270132Z 17014KT 18/07 A2995 RMK A01 T01790066  RH  048%=      5-min Rain = 0
KMC5 270133Z 17014KT 18/07 A2995 RMK A01 T01790066  RH  047%=      5-min Rain = 0
KMC5 270134Z 17014KT 18/07 A2995 RMK A01 T01790066  RH  047%=      5-min Rain = 0
KMC5 270135Z 17014KT 18/07 A2995 RMK A01 T01780065  RH  047%=      5-min Rain = 0
KMC5 270136Z 17014KT 18/07 A2995 RMK A01 T01780065  RH  047%=      5-min Rain = 0
KMC5 270137Z 17015KT 18/06 A2995 RMK A01 T01780064  RH  047%=      5-min Rain = 0
KMC5 270138Z 17014KT 18/06 A2996 RMK A01 T01780064  RH  047%=      5-min Rain = 0
KMC5 270139Z 17014KT 18/06 A2996 RMK A01 T01780064  RH  047%=      5-min Rain = 0
KMC5 270140Z 18013KT 18/07 A2996 RMK A01 T01780065  RH  047%=      5-min Rain = 0
KMC5 270141Z 17016KT 18/06 A2996 RMK A01 T01770064  RH  048%=      5-min Rain = 0
KMC5 270142Z 18016KT 18/06 A2996 RMK A01 T01780064  RH  047%=      5-min Rain = 0
KMC5 270143Z 17016KT 18/06 A2996 RMK A01 T01780064  RH  047%=      5-min Rain = 0
KMC5 270144Z 17016KT 18/06 A2996 RMK A01 T01780064  RH  047%=      5-min Rain = 0
KMC5 270145Z 18013KT 18/07 A2996 RMK A01 T01780065  RH  047%=      5-min Rain = 0
KMC5 270146Z 18014KT 18/07 A2996 RMK A01 T01770065  RH  048%=      5-min Rain = 0
KMC5 270147Z 17016KT 18/06 A2996 RMK A01 T01760064  RH  048%=      5-min Rain = 0
KMC5 270148Z 18015KT 18/07 A2996 RMK A01 T01760065  RH  048%=      5-min Rain = 0
KMC5 270149Z 18016KT 18/06 A2996 RMK A01 T01760064  RH  048%=      5-min Rain = 0
KMC5 270150Z 18015KT 18/06 A2996 RMK A01 T01760064  RH  048%=      5-min Rain = 0
KMC5 270151Z 18017KT 18/07 A2996 RMK A01 T01760065  RH  048%=      5-min Rain = 0
KMC5 270152Z 18015KT 18/06 A2996 RMK A01 T01760064  RH  048%=      5-min Rain = 0
KMC5 270153Z 18015KT 18/06 A2996 RMK A01 T01770064  RH  048%=      5-min Rain = 0
KMC5 270154Z 17014KT 18/07 A2996 RMK A01 T01760065  RH  048%=      5-min Rain = 0
KMC5 270155Z 18012KT 18/07 A2996 RMK A01 T01750065  RH  048%=      5-min Rain = 0
KMC5 270156Z 18013G19KT 17/07 A2996 RMK A01 T01740065  RH  049%=      5-min Rain = 0
KMC5 270157Z 18014KT 17/07 A2996 RMK A01 T01740065  RH  049%=      5-min Rain = 0
KMC5 270158Z 17015KT 17/07 A2996 RMK A01 T01740065  RH  049%=      5-min Rain = 0
KMC5 270159Z 18014KT 17/07 A2996 RMK A01 T01730065  RH  049%=      5-min Rain = 0
KMC5 270200Z 17015KT 17/07 A2996 RMK A01 T01740065  RH  049%=      5-min Rain = 0
KMC5 270201Z 18015KT 17/06 A2996 RMK A01 T01740064  RH  049%=      5-min Rain = 0
KMC5 270202Z 18015KT 17/06 A2996 RMK A01 T01740064  RH  049%=      5-min Rain = 0
KMC5 270203Z 18014KT 17/06 A2996 RMK A01 T01740064  RH  048%=      5-min Rain = 0
KMC5 270204Z 17015KT 17/07 A2996 RMK A01 T01730065  RH  049%=      5-min Rain = 0
KMC5 270205Z 17015KT 17/06 A2996 RMK A01 T01730064  RH  049%=      5-min Rain = 0
KMC5 270206Z 18016KT 17/06 A2996 RMK A01 T01730064  RH  049%=      5-min Rain = 0
KMC5 270207Z 17014KT 17/06 A2996 RMK A01 T01740064  RH  048%=      5-min Rain = 0
KMC5 270208Z 18014KT 17/06 A2996 RMK A01 T01740064  RH  049%=      5-min Rain = 0
KMC5 270209Z 17015KT 17/06 A2996 RMK A01 T01730064  RH  049%=      5-min Rain = 0
KMC5 270210Z 17013KT 17/06 A2996 RMK A01 T01730064  RH  049%=      5-min Rain = 0
KMC5 270211Z 17013KT 17/06 A2996 RMK A01 T01730064  RH  049%=      5-min Rain = 0
KMC5 270212Z 18014KT 17/06 A2996 RMK A01 T01720064  RH  049%=      5-min Rain = 0
KMC5 270213Z 17015KT 17/06 A2996 RMK A01 T01720064  RH  049%=      5-min Rain = 0
KMC5 270214Z 17015KT 17/06 A2996 RMK A01 T01720063  RH  049%=      5-min Rain = 0
KMC5 270215Z 17014KT 17/06 A2996 RMK A01 T01720063  RH  048%=      5-min Rain = 0
KMC5 270216Z 17012G17KT 17/06 A2996 RMK A01 T01720063  RH  049%=      5-min Rain = 0
KMC5 270217Z 17014KT 17/06 A2996 RMK A01 T01710063  RH  049%=      5-min Rain = 0
KMC5 270218Z 17015KT 17/06 A2996 RMK A01 T01710062  RH  049%=      5-min Rain = 0
KMC5 270219Z 17015KT 17/06 A2996 RMK A01 T01710062  RH  048%=      5-min Rain = 0
KMC5 270220Z 17013KT 17/06 A2996 RMK A01 T01710062  RH  049%=      5-min Rain = 0
KMC5 270221Z 17013KT 17/06 A2996 RMK A01 T01700062  RH  049%=      5-min Rain = 0
KMC5 270222Z 17014KT 17/06 A2997 RMK A01 T01690062  RH  049%=      5-min Rain = 0
KMC5 270223Z 18015KT 17/06 A2997 RMK A01 T01690061  RH  049%=      5-min Rain = 0
KMC5 270224Z 17014KT 17/06 A2997 RMK A01 T01690061  RH  049%=      5-min Rain = 0
KMC5 270225Z 18015KT 17/06 A2997 RMK A01 T01690061  RH  049%=      5-min Rain = 0
KMC5 270226Z 17014KT 17/06 A2997 RMK A01 T01700061  RH  049%=      5-min Rain = 0
KMC5 270227Z 18015KT 17/06 A2997 RMK A01 T01700061  RH  048%=      5-min Rain = 0
KMC5 270228Z 18015KT 17/06 A2997 RMK A01 T01700061  RH  048%=      5-min Rain = 0
KMC5 270229Z 18014KT 17/06 A2997 RMK A01 T01700061  RH  048%=      5-min Rain = 0
KMC5 270230Z 18014KT 17/06 A2997 RMK A01 T01690060  RH  049%=      5-min Rain = 0
KMC5 270231Z 18014KT 17/06 A2997 RMK A01 T01680061  RH  049%=      5-min Rain = 0
KMC5 270232Z 17015KT 17/06 A2997 RMK A01 T01670061  RH  049%=      5-min Rain = 0
KMC5 270233Z 18014KT 17/06 A2997 RMK A01 T01670061  RH  049%=      5-min Rain = 0
KMC5 270234Z 18016KT 17/06 A2997 RMK A01 T01670060  RH  049%=      5-min Rain = 0
KMC5 270235Z 18016KT 17/06 A2997 RMK A01 T01670060  RH  049%=      5-min Rain = 0
KMC5 270236Z 18013KT 17/06 A2997 RMK A01 T01680061  RH  049%=      5-min Rain = 0
KMC5 270237Z 18013KT 17/06 A2997 RMK A01 T01670062  RH  050%=      5-min Rain = 0
KMC5 270238Z 18015KT 17/06 A2997 RMK A01 T01660061  RH  050%=      5-min Rain = 0
KMC5 270239Z 18014KT 17/06 A2998 RMK A01 T01660061  RH  050%=      5-min Rain = 0
KMC5 270240Z 18014KT 17/06 A2998 RMK A01 T01660062  RH  050%=      5-min Rain = 0
KMC5 270241Z 19014KT 17/06 A2998 RMK A01 T01660062  RH  050%=      5-min Rain = 0
KMC5 270242Z 18015KT 17/06 A2998 RMK A01 T01660062  RH  050%=      5-min Rain = 0
KMC5 270243Z 18016KT 17/06 A2998 RMK A01 T01660061  RH  050%=      5-min Rain = 0
KMC5 270244Z 19014KT 17/06 A2998 RMK A01 T01660061  RH  050%=      5-min Rain = 0
KMC5 270245Z 19015KT 17/06 A2998 RMK A01 T01660061  RH  050%=      5-min Rain = 0
KMC5 270246Z 19014KT 17/06 A2999 RMK A01 T01660061  RH  050%=      5-min Rain = 0
KMC5 270247Z 18016KT 17/06 A2998 RMK A01 T01660062  RH  050%=      5-min Rain = 0
KMC5 270248Z 18015KT 17/06 A2999 RMK A01 T01660061  RH  050%=      5-min Rain = 0
KMC5 270249Z 18015KT 17/06 A2999 RMK A01 T01660062  RH  050%=      5-min Rain = 0
KMC5 270250Z 19015KT 17/06 A2999 RMK A01 T01660061  RH  050%=      5-min Rain = 0
KMC5 270251Z 18017KT 17/06 A2999 RMK A01 T01660061  RH  050%=      5-min Rain = 0
KMC5 270252Z 18015KT 17/06 A2999 RMK A01 T01660061  RH  050%=      5-min Rain = 0
KMC5 270253Z 19016KT 17/06 A2999 RMK A01 T01660062  RH  050%=      5-min Rain = 0
KMC5 270254Z 19017KT 17/06 A2999 RMK A01 T01660061  RH  050%=      5-min Rain = 0
KMC5 270255Z 18015KT 17/06 A2999 RMK A01 T01660061  RH  050%=      5-min Rain = 0
KMC5 270256Z 18016KT 17/06 A2998 RMK A01 T01660062  RH  050%=      5-min Rain = 0
KMC5 270257Z 18017KT 17/06 A2998 RMK A01 T01660062  RH  050%=      5-min Rain = 0
KMC5 270258Z 18016KT 17/06 A2998 RMK A01 T01660062  RH  050%=      5-min Rain = 0
KMC5 270259Z 18016KT 17/06 A2998 RMK A01 T01650061  RH  050%=      5-min Rain = 0
KMC5 270300Z 17018KT 17/06 A2998 RMK A01 T01650061  RH  050%=      5-min Rain = 0
KMC5 270301Z 18017KT 17/06 A2998 RMK A01 T01660061  RH  050%=      5-min Rain = 0
KMC5 270302Z 18017KT 17/06 A2998 RMK A01 T01660062  RH  050%=      5-min Rain = 0
KMC5 270303Z 18017KT 17/06 A2998 RMK A01 T01650061  RH  050%=      5-min Rain = 0
KMC5 270304Z 18015KT 17/06 A2998 RMK A01 T01650061  RH  050%=      5-min Rain = 0
KMC5 270305Z 18015KT 17/06 A2999 RMK A01 T01650062  RH  051%=      5-min Rain = 0
KMC5 270306Z 18015KT 16/06 A2998 RMK A01 T01640062  RH  051%=      5-min Rain = 0
KMC5 270307Z 18014KT 16/06 A2999 RMK A01 T01640063  RH  051%=      5-min Rain = 0
KMC5 270308Z 18014KT 16/06 A2998 RMK A01 T01630063  RH  051%=      5-min Rain = 0
KMC5 270309Z 18015KT 16/06 A2998 RMK A01 T01630063  RH  051%=      5-min Rain = 0
KMC5 270310Z 18016KT 16/06 A2998 RMK A01 T01630063  RH  051%=      5-min Rain = 0
KMC5 270311Z 18015KT 16/06 A2998 RMK A01 T01630063  RH  051%=      5-min Rain = 0
KMC5 270312Z 18016KT 16/06 A2998 RMK A01 T01630063  RH  051%=      5-min Rain = 0
KMC5 270313Z 18014KT 16/06 A2998 RMK A01 T01630064  RH  052%=      5-min Rain = 0
KMC5 270314Z 18017KT 16/06 A2998 RMK A01 T01620063  RH  052%=      5-min Rain = 0
KMC5 270315Z 18014KT 16/06 A2998 RMK A01 T01620063  RH  052%=      5-min Rain = 0
KMC5 270316Z 18015KT 16/06 A2998 RMK A01 T01620063  RH  052%=      5-min Rain = 0
KMC5 270317Z 18015KT 16/06 A2998 RMK A01 T01620064  RH  052%=      5-min Rain = 0
KMC5 270318Z 18015KT 16/06 A2998 RMK A01 T01620064  RH  052%=      5-min Rain = 0
KMC5 270319Z 18016KT 16/06 A2998 RMK A01 T01620063  RH  052%=      5-min Rain = 0
KMC5 270320Z 18015KT 16/06 A2998 RMK A01 T01630064  RH  052%=      5-min Rain = 0
KMC5 270321Z 18015KT 16/06 A2998 RMK A01 T01620064  RH  052%=      5-min Rain = 0
KMC5 270322Z 18015KT 16/06 A2998 RMK A01 T01630064  RH  052%=      5-min Rain = 0
KMC5 270323Z 18016KT 16/06 A2998 RMK A01 T01630064  RH  052%=      5-min Rain = 0
KMC5 270324Z 18016KT 16/06 A2998 RMK A01 T01630064  RH  052%=      5-min Rain = 0
KMC5 270325Z 18016KT 16/06 A2998 RMK A01 T01630064  RH  052%=      5-min Rain = 0
KMC5 270326Z 18018KT 16/06 A2998 RMK A01 T01630064  RH  052%=      5-min Rain = 0
KMC5 270327Z 18017KT 16/06 A2998 RMK A01 T01630063  RH  051%=      5-min Rain = 0
KMC5 270328Z 18018KT 16/06 A2998 RMK A01 T01640063  RH  051%=      5-min Rain = 0
KMC5 270329Z 18021KT 16/06 A2998 RMK A01 T01640063  RH  051%=      5-min Rain = 0
KMC5 270330Z 18018KT 17/06 A2998 RMK A01 T01650062  RH  051%=      5-min Rain = 0
KMC5 270331Z 18018KT 17/06 A2998 RMK A01 T01650063  RH  051%=      5-min Rain = 0
KMC5 270332Z 18018KT 17/06 A2998 RMK A01 T01650063  RH  051%=      5-min Rain = 0
KMC5 270333Z 18016KT 17/06 A2998 RMK A01 T01650064  RH  051%=      5-min Rain = 0
KMC5 270334Z 18016KT 16/06 A2998 RMK A01 T01640064  RH  052%=      5-min Rain = 0
KMC5 270335Z 18017G22KT 16/06 A2998 RMK A01 T01630064  RH  052%=      5-min Rain = 0
KMC5 270336Z 19016G21KT 16/06 A2998 RMK A01 T01630063  RH  051%=      5-min Rain = 0
KMC5 270337Z 18016KT 16/06 A2998 RMK A01 T01630064  RH  052%=      5-min Rain = 0
KMC5 270338Z 18017KT 16/06 A2998 RMK A01 T01630064  RH  052%=      5-min Rain = 0
KMC5 270339Z 18015KT 16/06 A2998 RMK A01 T01630064  RH  052%=      5-min Rain = 0
KMC5 270340Z 18016KT 16/07 A2998 RMK A01 T01630065  RH  052%=      5-min Rain = 0
KMC5 270341Z 18017KT 16/06 A2998 RMK A01 T01630064  RH  052%=      5-min Rain = 0
KMC5 270342Z 18018KT 16/06 A2998 RMK A01 T01630064  RH  052%=      5-min Rain = 0
KMC5 270343Z 18017KT 16/06 A2998 RMK A01 T01630064  RH  052%=      5-min Rain = 0
KMC5 270344Z 19019KT 16/06 A2998 RMK A01 T01640063  RH  051%=      5-min Rain = 0
KMC5 270345Z 18018KT 16/06 A2997 RMK A01 T01640063  RH  051%=      5-min Rain = 0
KMC5 270346Z 18019KT 17/06 A2997 RMK A01 T01650063  RH  051%=      5-min Rain = 0
KMC5 270347Z 18017KT 17/06 A2997 RMK A01 T01650063  RH  051%=      5-min Rain = 0
KMC5 270348Z 18016KT 17/06 A2997 RMK A01 T01650064  RH  051%=      5-min Rain = 0
KMC5 270349Z 19019KT 17/06 A2997 RMK A01 T01650064  RH  051%=      5-min Rain = 0
KMC5 270350Z 19017KT 17/06 A2997 RMK A01 T01650063  RH  051%=      5-min Rain = 0
KMC5 270351Z 19018KT 17/06 A2997 RMK A01 T01660064  RH  051%=      5-min Rain = 0
KMC5 270352Z 19020KT 17/06 A2997 RMK A01 T01660063  RH  051%=      5-min Rain = 0
KMC5 270353Z 19018KT 17/06 A2996 RMK A01 T01660063  RH  050%=      5-min Rain = 0
KMC5 270354Z 19019KT 17/06 A2996 RMK A01 T01660062  RH  050%=      5-min Rain = 0
KMC5 270355Z 18020KT 17/06 A2996 RMK A01 T01670063  RH  050%=      5-min Rain = 0
KMC5 270356Z 18020KT 17/06 A2996 RMK A01 T01670062  RH  050%=      5-min Rain = 0
KMC5 270357Z 18020KT 17/06 A2995 RMK A01 T01670062  RH  050%=      5-min Rain = 0
KMC5 270358Z 18023KT 17/06 A2995 RMK A01 T01670062  RH  050%=      5-min Rain = 0
KMC5 270359Z 18021G26KT 17/06 A2995 RMK A01 T01680062  RH  050%=      5-min Rain = 0
KMC5 270400Z 18022KT 17/06 A2995 RMK A01 T01680061  RH  049%=      5-min Rain = 0
KMC5 270401Z 18020KT 17/06 A2995 RMK A01 T01680062  RH  050%=      5-min Rain = 0
KMC5 270402Z 18022KT 17/06 A2994 RMK A01 T01680062  RH  050%=      5-min Rain = 0
KMC5 270403Z 18021KT 17/06 A2994 RMK A01 T01680061  RH  050%=      5-min Rain = 0
KMC5 270404Z 18022KT 17/06 A2994 RMK A01 T01680061  RH  049%=      5-min Rain = 0
KMC5 270405Z 18019KT 17/06 A2994 RMK A01 T01680061  RH  049%=      5-min Rain = 0
KMC5 270406Z 18021KT 17/06 A2994 RMK A01 T01680062  RH  050%=      5-min Rain = 0
KMC5 270407Z 18023G29KT 17/06 A2994 RMK A01 T01670062  RH  050%=      5-min Rain = 0
KMC5 270408Z 18023KT 17/06 A2993 RMK A01 T01680061  RH  049%=      5-min Rain = 0
KMC5 270409Z 18022KT 17/06 A2993 RMK A01 T01680061  RH  049%=      5-min Rain = 0
KMC5 270410Z 17023G30KT 17/06 A2993 RMK A01 T01680062  RH  049%=      5-min Rain = 0
KMC5 270411Z 17023G29KT 17/06 A2992 RMK A01 T01680061  RH  049%=      5-min Rain = 0
KMC5 270412Z 17025G30KT 17/06 A2992 RMK A01 T01680062  RH  050%=      5-min Rain = 0
KMC5 270413Z 17022G28KT 17/06 A2992 RMK A01 T01680062  RH  050%=      5-min Rain = 0
KMC5 270414Z 17021G27KT 17/06 A2992 RMK A01 T01680063  RH  050%=      5-min Rain = 0
KMC5 270415Z 17022KT 17/06 A2992 RMK A01 T01670063  RH  050%=      5-min Rain = 0
KMC5 270416Z 17024KT 17/06 A2991 RMK A01 T01670063  RH  050%=      5-min Rain = 0
KMC5 270417Z 17020G27KT 17/06 A2991 RMK A01 T01670063  RH  050%=      5-min Rain = 0
KMC5 270418Z 18022KT 17/06 A2991 RMK A01 T01670064  RH  050%=      5-min Rain = 0
KMC5 270419Z 18025G31KT 17/06 A2991 RMK A01 T01670064  RH  051%=      5-min Rain = 0
KMC5 270420Z 18024G29KT 17/06 A2991 RMK A01 T01670063  RH  050%=      5-min Rain = 0
KMC5 270421Z 18024G30KT 17/06 A2991 RMK A01 T01670063  RH  050%=      5-min Rain = 0
KMC5 270422Z 18026KT 17/06 A2991 RMK A01 T01670063  RH  050%=      5-min Rain = 0
KMC5 270423Z 18022KT 17/06 A2991 RMK A01 T01670064  RH  051%=      5-min Rain = 0
KMC5 270424Z 18023KT 17/06 A2991 RMK A01 T01660064  RH  051%=      5-min Rain = 0
KMC5 270425Z 18026KT 17/07 A2991 RMK A01 T01660065  RH  051%=      5-min Rain = 0
KMC5 270426Z 18024KT 17/07 A2991 RMK A01 T01660065  RH  051%=      5-min Rain = 0
KMC5 270427Z 18024KT 17/07 A2991 RMK A01 T01670065  RH  051%=      5-min Rain = 0
KMC5 270428Z 18025KT 17/07 A2991 RMK A01 T01670065  RH  051%=      5-min Rain = 0
KMC5 270429Z 18024KT 17/07 A2991 RMK A01 T01670065  RH  051%=      5-min Rain = 0
KMC5 270430Z 18021G26KT 17/07 A2992 RMK A01 T01660066  RH  051%=      5-min Rain = 0
KMC5 270431Z 18021KT 17/07 A2992 RMK A01 T01660067  RH  052%=      5-min Rain = 0
KMC5 270432Z 18021KT 17/07 A2992 RMK A01 T01660067  RH  052%=      5-min Rain = 0
KMC5 270433Z 17020KT 17/07 A2992 RMK A01 T01660067  RH  052%=      5-min Rain = 0
KMC5 270434Z 18022KT 17/07 A2992 RMK A01 T01660067  RH  052%=      5-min Rain = 0
KMC5 270435Z 18018KT 17/07 A2992 RMK A01 T01660067  RH  052%=      5-min Rain = 0
KMC5 270436Z 18018KT 17/07 A2992 RMK A01 T01660068  RH  052%=      5-min Rain = 0
KMC5 270437Z 18016KT 17/07 A2993 RMK A01 T01660068  RH  052%=      5-min Rain = 0
KMC5 270438Z 18014KT 17/07 A2993 RMK A01 T01660068  RH  052%=      5-min Rain = 0
KMC5 270439Z 18014KT 17/07 A2993 RMK A01 T01650068  RH  053%=      5-min Rain = 0
KMC5 270440Z 19013KT 17/07 A2993 RMK A01 T01650069  RH  053%=      5-min Rain = 0
KMC5 270441Z 19014KT 17/07 A2993 RMK A01 T01650069  RH  053%=      5-min Rain = 0
KMC5 270442Z 19013KT 17/07 A2993 RMK A01 T01650069  RH  053%=      5-min Rain = 0
KMC5 270443Z 19013KT 17/07 A2993 RMK A01 T01650069  RH  053%=      5-min Rain = 0
KMC5 270444Z 19010KT 17/07 A2993 RMK A01 T01650070  RH  053%=      5-min Rain = 0
KMC5 270445Z 19010KT 17/07 A2993 RMK A01 T01650070  RH  053%=      5-min Rain = 0
KMC5 270446Z 19011KT 17/07 A2994 RMK A01 T01650071  RH  053%=      5-min Rain = 0
KMC5 270447Z 19010KT 17/07 A2994 RMK A01 T01660070  RH  053%=      5-min Rain = 0
KMC5 270448Z 19009KT 17/07 A2994 RMK A01 T01670071  RH  053%=      5-min Rain = 0
KMC5 270449Z 19009KT 17/07 A2993 RMK A01 T01670071  RH  053%=      5-min Rain = 0
KMC5 270450Z 20011KT 17/07 A2993 RMK A01 T01670071  RH  053%=      5-min Rain = 0
KMC5 270451Z 20010KT 17/07 A2993 RMK A01 T01680072  RH  053%=      5-min Rain = 0
KMC5 270452Z 20007KT 17/07 A2994 RMK A01 T01690071  RH  053%=      5-min Rain = 0
KMC5 270453Z 20007KT 17/07 A2994 RMK A01 T01690072  RH  053%=      5-min Rain = 0
KMC5 270454Z 21008KT 17/07 A2994 RMK A01 T01690073  RH  053%=      5-min Rain = 0
KMC5 270455Z 20010KT 17/07 A2994 RMK A01 T01680073  RH  053%=      5-min Rain = 0
KMC5 270456Z 19010KT 17/07 A2994 RMK A01 T01690073  RH  053%=      5-min Rain = 0
KMC5 270457Z 20009KT 17/07 A2993 RMK A01 T01690074  RH  053%=      5-min Rain = 0
KMC5 270458Z 19011KT 17/07 A2993 RMK A01 T01700074  RH  053%=      5-min Rain = 0
KMC5 270459Z 19012KT 17/07 A2993 RMK A01 T01700074  RH  053%=      5-min Rain = 0

Page generated in 0.0829 seconds.